<?xml version="1.0" encoding="UTF-8" standalone="no" ?>
<gpx xmlns="http://www.topografix.com/GPX/1/1" xmlns:xsi="http://www.w3.org/2001/XMLSchema-instance" xsi:schemaLocation="http://www.topografix.com/GPX/1/1 http://www.topografix.com/GPX/1/1/gpx.xsd" version="1.1" creator="VisuGPX - https://www.visugpx.com">
  <metadata>
    <name>2012-03-04 Sortie Coteaux</name>
    <desc><![CDATA[Sortie sur les coteaux de Pech David.]]></desc>
  </metadata>
  <trk>
    <name><![CDATA[Path Segment 1]]></name>
    <trkseg>
      <trkpt lat="43.57532" lon="1.44304">
        <ele>196</ele>
        <time>2012-03-04T07:52:11.402Z</time>
      </trkpt>
      <trkpt lat="43.57526" lon="1.4429">
        <ele>198</ele>
        <time>2012-03-04T07:52:16.404Z</time>
      </trkpt>
      <trkpt lat="43.57519" lon="1.44278">
        <ele>199</ele>
        <time>2012-03-04T07:52:21.436Z</time>
      </trkpt>
      <trkpt lat="43.57511" lon="1.44264">
        <ele>200</ele>
        <time>2012-03-04T07:52:26.426Z</time>
      </trkpt>
      <trkpt lat="43.57501" lon="1.44249">
        <ele>200</ele>
        <time>2012-03-04T07:52:31.429Z</time>
      </trkpt>
      <trkpt lat="43.57495" lon="1.44237">
        <ele>200</ele>
        <time>2012-03-04T07:52:36.499Z</time>
      </trkpt>
      <trkpt lat="43.5748" lon="1.44228">
        <ele>189</ele>
        <time>2012-03-04T07:52:41.351Z</time>
      </trkpt>
      <trkpt lat="43.57478" lon="1.44215">
        <ele>204</ele>
        <time>2012-03-04T07:52:46.447Z</time>
      </trkpt>
      <trkpt lat="43.57471" lon="1.44205">
        <ele>205</ele>
        <time>2012-03-04T07:52:51.418Z</time>
      </trkpt>
      <trkpt lat="43.57467" lon="1.44197">
        <ele>206</ele>
        <time>2012-03-04T07:52:56.412Z</time>
      </trkpt>
      <trkpt lat="43.57454" lon="1.4418">
        <ele>208</ele>
        <time>2012-03-04T07:53:05.412Z</time>
      </trkpt>
      <trkpt lat="43.57447" lon="1.44173">
        <ele>209</ele>
        <time>2012-03-04T07:53:10.419Z</time>
      </trkpt>
      <trkpt lat="43.57439" lon="1.44165">
        <ele>211</ele>
        <time>2012-03-04T07:53:15.417Z</time>
      </trkpt>
      <trkpt lat="43.57433" lon="1.44159">
        <ele>213</ele>
        <time>2012-03-04T07:53:20.414Z</time>
      </trkpt>
      <trkpt lat="43.57427" lon="1.44151">
        <ele>215</ele>
        <time>2012-03-04T07:53:25.418Z</time>
      </trkpt>
      <trkpt lat="43.57422" lon="1.44144">
        <ele>215</ele>
        <time>2012-03-04T07:53:30.415Z</time>
      </trkpt>
      <trkpt lat="43.57417" lon="1.44136">
        <ele>216</ele>
        <time>2012-03-04T07:53:35.415Z</time>
      </trkpt>
      <trkpt lat="43.57412" lon="1.44128">
        <ele>217</ele>
        <time>2012-03-04T07:53:40.413Z</time>
      </trkpt>
      <trkpt lat="43.57405" lon="1.44122">
        <ele>219</ele>
        <time>2012-03-04T07:53:45.420Z</time>
      </trkpt>
      <trkpt lat="43.57399" lon="1.44117">
        <ele>220</ele>
        <time>2012-03-04T07:53:50.419Z</time>
      </trkpt>
      <trkpt lat="43.57395" lon="1.44109">
        <ele>222</ele>
        <time>2012-03-04T07:53:55.419Z</time>
      </trkpt>
      <trkpt lat="43.5739" lon="1.44104">
        <ele>222</ele>
        <time>2012-03-04T07:54:00.423Z</time>
      </trkpt>
      <trkpt lat="43.57384" lon="1.44102">
        <ele>224</ele>
        <time>2012-03-04T07:54:05.418Z</time>
      </trkpt>
      <trkpt lat="43.57375" lon="1.44103">
        <ele>225</ele>
        <time>2012-03-04T07:54:10.414Z</time>
      </trkpt>
      <trkpt lat="43.57368" lon="1.44106">
        <ele>225</ele>
        <time>2012-03-04T07:54:15.417Z</time>
      </trkpt>
      <trkpt lat="43.5736" lon="1.44106">
        <ele>226</ele>
        <time>2012-03-04T07:54:20.433Z</time>
      </trkpt>
      <trkpt lat="43.57343" lon="1.44114">
        <ele>229</ele>
        <time>2012-03-04T07:54:30.425Z</time>
      </trkpt>
      <trkpt lat="43.57336" lon="1.4412">
        <ele>231</ele>
        <time>2012-03-04T07:54:35.425Z</time>
      </trkpt>
      <trkpt lat="43.57329" lon="1.44125">
        <ele>233</ele>
        <time>2012-03-04T07:54:40.420Z</time>
      </trkpt>
      <trkpt lat="43.57322" lon="1.44129">
        <ele>234</ele>
        <time>2012-03-04T07:54:45.422Z</time>
      </trkpt>
      <trkpt lat="43.57315" lon="1.44133">
        <ele>236</ele>
        <time>2012-03-04T07:54:50.425Z</time>
      </trkpt>
      <trkpt lat="43.57309" lon="1.44136">
        <ele>237</ele>
        <time>2012-03-04T07:54:55.421Z</time>
      </trkpt>
      <trkpt lat="43.57309" lon="1.44136">
        <ele>237</ele>
        <time>2012-03-04T07:54:55.421Z</time>
      </trkpt>
      <trkpt lat="43.57294" lon="1.44135">
        <ele>241</ele>
        <time>2012-03-04T07:55:05.427Z</time>
      </trkpt>
      <trkpt lat="43.57287" lon="1.44137">
        <ele>242</ele>
        <time>2012-03-04T07:55:10.422Z</time>
      </trkpt>
      <trkpt lat="43.57279" lon="1.44139">
        <ele>243</ele>
        <time>2012-03-04T07:55:15.427Z</time>
      </trkpt>
      <trkpt lat="43.57269" lon="1.44141">
        <ele>244</ele>
        <time>2012-03-04T07:55:20.419Z</time>
      </trkpt>
      <trkpt lat="43.57259" lon="1.44141">
        <ele>245</ele>
        <time>2012-03-04T07:55:25.452Z</time>
      </trkpt>
      <trkpt lat="43.57249" lon="1.4414">
        <ele>246</ele>
        <time>2012-03-04T07:55:30.417Z</time>
      </trkpt>
      <trkpt lat="43.57241" lon="1.44138">
        <ele>247</ele>
        <time>2012-03-04T07:55:35.419Z</time>
      </trkpt>
      <trkpt lat="43.57231" lon="1.44138">
        <ele>248</ele>
        <time>2012-03-04T07:55:40.428Z</time>
      </trkpt>
      <trkpt lat="43.57222" lon="1.44137">
        <ele>248</ele>
        <time>2012-03-04T07:55:45.426Z</time>
      </trkpt>
      <trkpt lat="43.57213" lon="1.44139">
        <ele>249</ele>
        <time>2012-03-04T07:55:50.428Z</time>
      </trkpt>
      <trkpt lat="43.57203" lon="1.44143">
        <ele>249</ele>
        <time>2012-03-04T07:55:55.420Z</time>
      </trkpt>
      <trkpt lat="43.57193" lon="1.44144">
        <ele>249</ele>
        <time>2012-03-04T07:56:00.421Z</time>
      </trkpt>
      <trkpt lat="43.57183" lon="1.44144">
        <ele>250</ele>
        <time>2012-03-04T07:56:05.422Z</time>
      </trkpt>
      <trkpt lat="43.57159" lon="1.44144">
        <ele>253</ele>
        <time>2012-03-04T07:56:19.999Z</time>
      </trkpt>
      <trkpt lat="43.57147" lon="1.44146">
        <ele>254</ele>
        <time>2012-03-04T07:56:25.429Z</time>
      </trkpt>
      <trkpt lat="43.57137" lon="1.44153">
        <ele>254</ele>
        <time>2012-03-04T07:56:30.428Z</time>
      </trkpt>
      <trkpt lat="43.57132" lon="1.44157">
        <ele>254</ele>
        <time>2012-03-04T07:56:35.426Z</time>
      </trkpt>
      <trkpt lat="43.57125" lon="1.44159">
        <ele>254</ele>
        <time>2012-03-04T07:56:40.473Z</time>
      </trkpt>
      <trkpt lat="43.57117" lon="1.4416">
        <ele>255</ele>
        <time>2012-03-04T07:56:45.468Z</time>
      </trkpt>
      <trkpt lat="43.5711" lon="1.44161">
        <ele>256</ele>
        <time>2012-03-04T07:56:50.429Z</time>
      </trkpt>
      <trkpt lat="43.57103" lon="1.44163">
        <ele>256</ele>
        <time>2012-03-04T07:56:55.428Z</time>
      </trkpt>
      <trkpt lat="43.57095" lon="1.44164">
        <ele>257</ele>
        <time>2012-03-04T07:57:00.481Z</time>
      </trkpt>
      <trkpt lat="43.57088" lon="1.44165">
        <ele>259</ele>
        <time>2012-03-04T07:57:05.457Z</time>
      </trkpt>
      <trkpt lat="43.57081" lon="1.44167">
        <ele>261</ele>
        <time>2012-03-04T07:57:10.431Z</time>
      </trkpt>
      <trkpt lat="43.57073" lon="1.4417">
        <ele>262</ele>
        <time>2012-03-04T07:57:15.432Z</time>
      </trkpt>
      <trkpt lat="43.57065" lon="1.44175">
        <ele>263</ele>
        <time>2012-03-04T07:57:20.429Z</time>
      </trkpt>
      <trkpt lat="43.57058" lon="1.44179">
        <ele>263</ele>
        <time>2012-03-04T07:57:25.459Z</time>
      </trkpt>
      <trkpt lat="43.57045" lon="1.44192">
        <ele>257</ele>
        <time>2012-03-04T07:58:25.430Z</time>
      </trkpt>
      <trkpt lat="43.57039" lon="1.44195">
        <ele>258</ele>
        <time>2012-03-04T07:58:30.428Z</time>
      </trkpt>
      <trkpt lat="43.5703" lon="1.44197">
        <ele>258</ele>
        <time>2012-03-04T07:58:35.468Z</time>
      </trkpt>
      <trkpt lat="43.57021" lon="1.44197">
        <ele>259</ele>
        <time>2012-03-04T07:58:40.432Z</time>
      </trkpt>
      <trkpt lat="43.57014" lon="1.44198">
        <ele>261</ele>
        <time>2012-03-04T07:58:45.456Z</time>
      </trkpt>
      <trkpt lat="43.57006" lon="1.44198">
        <ele>262</ele>
        <time>2012-03-04T07:58:50.433Z</time>
      </trkpt>
      <trkpt lat="43.56961" lon="1.44204">
        <ele>264</ele>
        <time>2012-03-04T07:59:09.999Z</time>
      </trkpt>
      <trkpt lat="43.56949" lon="1.44205">
        <ele>265</ele>
        <time>2012-03-04T07:59:15.423Z</time>
      </trkpt>
      <trkpt lat="43.56938" lon="1.44204">
        <ele>266</ele>
        <time>2012-03-04T07:59:20.422Z</time>
      </trkpt>
      <trkpt lat="43.56927" lon="1.44205">
        <ele>267</ele>
        <time>2012-03-04T07:59:25.424Z</time>
      </trkpt>
      <trkpt lat="43.56917" lon="1.44207">
        <ele>268</ele>
        <time>2012-03-04T07:59:30.425Z</time>
      </trkpt>
      <trkpt lat="43.56908" lon="1.44209">
        <ele>269</ele>
        <time>2012-03-04T07:59:35.422Z</time>
      </trkpt>
      <trkpt lat="43.56898" lon="1.44211">
        <ele>270</ele>
        <time>2012-03-04T07:59:40.424Z</time>
      </trkpt>
      <trkpt lat="43.56888" lon="1.44213">
        <ele>271</ele>
        <time>2012-03-04T07:59:45.428Z</time>
      </trkpt>
      <trkpt lat="43.5688" lon="1.44215">
        <ele>272</ele>
        <time>2012-03-04T07:59:50.431Z</time>
      </trkpt>
      <trkpt lat="43.56872" lon="1.44216">
        <ele>273</ele>
        <time>2012-03-04T07:59:55.432Z</time>
      </trkpt>
      <trkpt lat="43.56863" lon="1.44217">
        <ele>274</ele>
        <time>2012-03-04T08:00:00.487Z</time>
      </trkpt>
      <trkpt lat="43.56855" lon="1.44218">
        <ele>275</ele>
        <time>2012-03-04T08:00:05.431Z</time>
      </trkpt>
      <trkpt lat="43.56844" lon="1.44221">
        <ele>276</ele>
        <time>2012-03-04T08:00:10.426Z</time>
      </trkpt>
      <trkpt lat="43.56833" lon="1.44226">
        <ele>276</ele>
        <time>2012-03-04T08:00:15.464Z</time>
      </trkpt>
      <trkpt lat="43.56823" lon="1.4423">
        <ele>277</ele>
        <time>2012-03-04T08:00:20.434Z</time>
      </trkpt>
      <trkpt lat="43.56811" lon="1.44229">
        <ele>278</ele>
        <time>2012-03-04T08:00:25.430Z</time>
      </trkpt>
      <trkpt lat="43.56797" lon="1.44226">
        <ele>278</ele>
        <time>2012-03-04T08:00:30.472Z</time>
      </trkpt>
      <trkpt lat="43.56777" lon="1.44221">
        <ele>277</ele>
        <time>2012-03-04T08:00:35.430Z</time>
      </trkpt>
      <trkpt lat="43.56753" lon="1.44217">
        <ele>276</ele>
        <time>2012-03-04T08:00:40.431Z</time>
      </trkpt>
      <trkpt lat="43.56695" lon="1.4421">
        <ele>276</ele>
        <time>2012-03-04T08:00:50.433Z</time>
      </trkpt>
      <trkpt lat="43.56671" lon="1.44216">
        <ele>276</ele>
        <time>2012-03-04T08:00:55.464Z</time>
      </trkpt>
      <trkpt lat="43.56664" lon="1.44237">
        <ele>275</ele>
        <time>2012-03-04T08:01:00.432Z</time>
      </trkpt>
      <trkpt lat="43.56657" lon="1.44249">
        <ele>274</ele>
        <time>2012-03-04T08:01:05.436Z</time>
      </trkpt>
      <trkpt lat="43.5665" lon="1.4426">
        <ele>274</ele>
        <time>2012-03-04T08:01:10.477Z</time>
      </trkpt>
      <trkpt lat="43.56643" lon="1.44271">
        <ele>274</ele>
        <time>2012-03-04T08:01:15.434Z</time>
      </trkpt>
      <trkpt lat="43.56637" lon="1.4428">
        <ele>274</ele>
        <time>2012-03-04T08:01:20.469Z</time>
      </trkpt>
      <trkpt lat="43.56631" lon="1.44289">
        <ele>275</ele>
        <time>2012-03-04T08:01:25.436Z</time>
      </trkpt>
      <trkpt lat="43.56624" lon="1.443">
        <ele>275</ele>
        <time>2012-03-04T08:01:30.434Z</time>
      </trkpt>
      <trkpt lat="43.56618" lon="1.44314">
        <ele>276</ele>
        <time>2012-03-04T08:01:35.434Z</time>
      </trkpt>
      <trkpt lat="43.56614" lon="1.44327">
        <ele>276</ele>
        <time>2012-03-04T08:01:40.437Z</time>
      </trkpt>
      <trkpt lat="43.56612" lon="1.44341">
        <ele>277</ele>
        <time>2012-03-04T08:01:45.436Z</time>
      </trkpt>
      <trkpt lat="43.56608" lon="1.44354">
        <ele>278</ele>
        <time>2012-03-04T08:01:50.436Z</time>
      </trkpt>
      <trkpt lat="43.56605" lon="1.44366">
        <ele>278</ele>
        <time>2012-03-04T08:01:55.433Z</time>
      </trkpt>
      <trkpt lat="43.56601" lon="1.44379">
        <ele>279</ele>
        <time>2012-03-04T08:02:00.455Z</time>
      </trkpt>
      <trkpt lat="43.56599" lon="1.44392">
        <ele>280</ele>
        <time>2012-03-04T08:02:05.438Z</time>
      </trkpt>
      <trkpt lat="43.56592" lon="1.44405">
        <ele>281</ele>
        <time>2012-03-04T08:02:10.436Z</time>
      </trkpt>
      <trkpt lat="43.56581" lon="1.44417">
        <ele>282</ele>
        <time>2012-03-04T08:02:15.474Z</time>
      </trkpt>
      <trkpt lat="43.56567" lon="1.44424">
        <ele>283</ele>
        <time>2012-03-04T08:02:20.435Z</time>
      </trkpt>
      <trkpt lat="43.56554" lon="1.44432">
        <ele>285</ele>
        <time>2012-03-04T08:02:25.432Z</time>
      </trkpt>
      <trkpt lat="43.5654" lon="1.4444">
        <ele>286</ele>
        <time>2012-03-04T08:02:30.431Z</time>
      </trkpt>
      <trkpt lat="43.56528" lon="1.44451">
        <ele>286</ele>
        <time>2012-03-04T08:02:35.432Z</time>
      </trkpt>
      <trkpt lat="43.56516" lon="1.44461">
        <ele>286</ele>
        <time>2012-03-04T08:02:40.433Z</time>
      </trkpt>
      <trkpt lat="43.56497" lon="1.44477">
        <ele>288</ele>
        <time>2012-03-04T08:02:50.486Z</time>
      </trkpt>
      <trkpt lat="43.56486" lon="1.44486">
        <ele>288</ele>
        <time>2012-03-04T08:02:55.433Z</time>
      </trkpt>
      <trkpt lat="43.56464" lon="1.44505">
        <ele>287</ele>
        <time>2012-03-04T08:03:05.434Z</time>
      </trkpt>
      <trkpt lat="43.56454" lon="1.44514">
        <ele>287</ele>
        <time>2012-03-04T08:03:10.438Z</time>
      </trkpt>
      <trkpt lat="43.56445" lon="1.44521">
        <ele>287</ele>
        <time>2012-03-04T08:03:15.434Z</time>
      </trkpt>
      <trkpt lat="43.56435" lon="1.44528">
        <ele>287</ele>
        <time>2012-03-04T08:03:20.434Z</time>
      </trkpt>
      <trkpt lat="43.56425" lon="1.44537">
        <ele>286</ele>
        <time>2012-03-04T08:03:25.435Z</time>
      </trkpt>
      <trkpt lat="43.56412" lon="1.44545">
        <ele>286</ele>
        <time>2012-03-04T08:03:30.434Z</time>
      </trkpt>
      <trkpt lat="43.56397" lon="1.44556">
        <ele>286</ele>
        <time>2012-03-04T08:03:35.430Z</time>
      </trkpt>
      <trkpt lat="43.56379" lon="1.44571">
        <ele>286</ele>
        <time>2012-03-04T08:03:40.429Z</time>
      </trkpt>
      <trkpt lat="43.56362" lon="1.44587">
        <ele>286</ele>
        <time>2012-03-04T08:03:45.438Z</time>
      </trkpt>
      <trkpt lat="43.56342" lon="1.44606">
        <ele>286</ele>
        <time>2012-03-04T08:03:50.431Z</time>
      </trkpt>
      <trkpt lat="43.56318" lon="1.44628">
        <ele>286</ele>
        <time>2012-03-04T08:03:55.438Z</time>
      </trkpt>
      <trkpt lat="43.56302" lon="1.44642">
        <ele>287</ele>
        <time>2012-03-04T08:04:00.441Z</time>
      </trkpt>
      <trkpt lat="43.56287" lon="1.44654">
        <ele>289</ele>
        <time>2012-03-04T08:04:05.437Z</time>
      </trkpt>
      <trkpt lat="43.56269" lon="1.44664">
        <ele>289</ele>
        <time>2012-03-04T08:04:10.438Z</time>
      </trkpt>
      <trkpt lat="43.5625" lon="1.44674">
        <ele>291</ele>
        <time>2012-03-04T08:04:15.436Z</time>
      </trkpt>
      <trkpt lat="43.56206" lon="1.44689">
        <ele>292</ele>
        <time>2012-03-04T08:04:25.441Z</time>
      </trkpt>
      <trkpt lat="43.56186" lon="1.44698">
        <ele>292</ele>
        <time>2012-03-04T08:04:30.439Z</time>
      </trkpt>
      <trkpt lat="43.56159" lon="1.44707">
        <ele>292</ele>
        <time>2012-03-04T08:04:35.441Z</time>
      </trkpt>
      <trkpt lat="43.56137" lon="1.44714">
        <ele>293</ele>
        <time>2012-03-04T08:04:40.439Z</time>
      </trkpt>
      <trkpt lat="43.5612" lon="1.44724">
        <ele>293</ele>
        <time>2012-03-04T08:04:45.440Z</time>
      </trkpt>
      <trkpt lat="43.56107" lon="1.44728">
        <ele>294</ele>
        <time>2012-03-04T08:04:50.438Z</time>
      </trkpt>
      <trkpt lat="43.56095" lon="1.44729">
        <ele>294</ele>
        <time>2012-03-04T08:04:55.434Z</time>
      </trkpt>
      <trkpt lat="43.56082" lon="1.44722">
        <ele>293</ele>
        <time>2012-03-04T08:05:00.450Z</time>
      </trkpt>
      <trkpt lat="43.5607" lon="1.44716">
        <ele>292</ele>
        <time>2012-03-04T08:05:05.435Z</time>
      </trkpt>
      <trkpt lat="43.56058" lon="1.4471">
        <ele>292</ele>
        <time>2012-03-04T08:05:10.434Z</time>
      </trkpt>
      <trkpt lat="43.56046" lon="1.44705">
        <ele>292</ele>
        <time>2012-03-04T08:05:15.434Z</time>
      </trkpt>
      <trkpt lat="43.56034" lon="1.44698">
        <ele>292</ele>
        <time>2012-03-04T08:05:20.429Z</time>
      </trkpt>
      <trkpt lat="43.56024" lon="1.4469">
        <ele>293</ele>
        <time>2012-03-04T08:05:25.440Z</time>
      </trkpt>
      <trkpt lat="43.56012" lon="1.44683">
        <ele>293</ele>
        <time>2012-03-04T08:05:30.431Z</time>
      </trkpt>
      <trkpt lat="43.56" lon="1.44678">
        <ele>293</ele>
        <time>2012-03-04T08:05:35.431Z</time>
      </trkpt>
      <trkpt lat="43.55989" lon="1.44675">
        <ele>294</ele>
        <time>2012-03-04T08:05:40.435Z</time>
      </trkpt>
      <trkpt lat="43.55978" lon="1.44673">
        <ele>295</ele>
        <time>2012-03-04T08:05:45.441Z</time>
      </trkpt>
      <trkpt lat="43.55968" lon="1.44671">
        <ele>297</ele>
        <time>2012-03-04T08:05:50.433Z</time>
      </trkpt>
      <trkpt lat="43.55959" lon="1.44669">
        <ele>298</ele>
        <time>2012-03-04T08:05:55.433Z</time>
      </trkpt>
      <trkpt lat="43.5595" lon="1.4467">
        <ele>299</ele>
        <time>2012-03-04T08:06:00.431Z</time>
      </trkpt>
      <trkpt lat="43.55942" lon="1.44669">
        <ele>301</ele>
        <time>2012-03-04T08:06:05.461Z</time>
      </trkpt>
      <trkpt lat="43.55926" lon="1.44666">
        <ele>304</ele>
        <time>2012-03-04T08:06:15.445Z</time>
      </trkpt>
      <trkpt lat="43.5592" lon="1.44662">
        <ele>305</ele>
        <time>2012-03-04T08:06:20.432Z</time>
      </trkpt>
      <trkpt lat="43.5592" lon="1.44654">
        <ele>306</ele>
        <time>2012-03-04T08:06:25.440Z</time>
      </trkpt>
      <trkpt lat="43.55921" lon="1.44645">
        <ele>307</ele>
        <time>2012-03-04T08:06:30.441Z</time>
      </trkpt>
      <trkpt lat="43.55918" lon="1.44634">
        <ele>307</ele>
        <time>2012-03-04T08:06:35.480Z</time>
      </trkpt>
      <trkpt lat="43.5592" lon="1.44625">
        <ele>308</ele>
        <time>2012-03-04T08:06:40.477Z</time>
      </trkpt>
      <trkpt lat="43.55922" lon="1.44614">
        <ele>308</ele>
        <time>2012-03-04T08:06:45.440Z</time>
      </trkpt>
      <trkpt lat="43.55925" lon="1.44604">
        <ele>309</ele>
        <time>2012-03-04T08:06:50.445Z</time>
      </trkpt>
      <trkpt lat="43.55927" lon="1.44593">
        <ele>309</ele>
        <time>2012-03-04T08:06:55.440Z</time>
      </trkpt>
      <trkpt lat="43.5593" lon="1.44568">
        <ele>309</ele>
        <time>2012-03-04T08:07:05.436Z</time>
      </trkpt>
      <trkpt lat="43.55929" lon="1.44559">
        <ele>310</ele>
        <time>2012-03-04T08:07:10.443Z</time>
      </trkpt>
      <trkpt lat="43.55927" lon="1.44549">
        <ele>310</ele>
        <time>2012-03-04T08:07:15.445Z</time>
      </trkpt>
      <trkpt lat="43.55917" lon="1.44548">
        <ele>311</ele>
        <time>2012-03-04T08:07:25.442Z</time>
      </trkpt>
      <trkpt lat="43.55911" lon="1.44551">
        <ele>312</ele>
        <time>2012-03-04T08:07:30.446Z</time>
      </trkpt>
      <trkpt lat="43.55904" lon="1.44556">
        <ele>312</ele>
        <time>2012-03-04T08:07:35.441Z</time>
      </trkpt>
      <trkpt lat="43.55895" lon="1.44562">
        <ele>312</ele>
        <time>2012-03-04T08:07:40.445Z</time>
      </trkpt>
      <trkpt lat="43.55885" lon="1.4457">
        <ele>312</ele>
        <time>2012-03-04T08:07:45.444Z</time>
      </trkpt>
      <trkpt lat="43.55878" lon="1.44575">
        <ele>311</ele>
        <time>2012-03-04T08:07:50.445Z</time>
      </trkpt>
      <trkpt lat="43.55865" lon="1.44579">
        <ele>314</ele>
        <time>2012-03-04T08:08:00.446Z</time>
      </trkpt>
      <trkpt lat="43.55856" lon="1.44581">
        <ele>315</ele>
        <time>2012-03-04T08:08:05.448Z</time>
      </trkpt>
      <trkpt lat="43.55848" lon="1.44582">
        <ele>315</ele>
        <time>2012-03-04T08:08:10.444Z</time>
      </trkpt>
      <trkpt lat="43.5584" lon="1.44584">
        <ele>316</ele>
        <time>2012-03-04T08:08:15.444Z</time>
      </trkpt>
      <trkpt lat="43.55834" lon="1.44584">
        <ele>317</ele>
        <time>2012-03-04T08:08:20.441Z</time>
      </trkpt>
      <trkpt lat="43.55828" lon="1.44584">
        <ele>316</ele>
        <time>2012-03-04T08:08:25.443Z</time>
      </trkpt>
      <trkpt lat="43.55815" lon="1.44582">
        <ele>315</ele>
        <time>2012-03-04T08:08:35.437Z</time>
      </trkpt>
      <trkpt lat="43.55801" lon="1.44578">
        <ele>315</ele>
        <time>2012-03-04T08:08:40.441Z</time>
      </trkpt>
      <trkpt lat="43.55781" lon="1.44569">
        <ele>314</ele>
        <time>2012-03-04T08:08:45.447Z</time>
      </trkpt>
      <trkpt lat="43.55748" lon="1.44551">
        <ele>310</ele>
        <time>2012-03-04T08:08:50.449Z</time>
      </trkpt>
      <trkpt lat="43.55706" lon="1.44519">
        <ele>306</ele>
        <time>2012-03-04T08:08:55.451Z</time>
      </trkpt>
      <trkpt lat="43.55674" lon="1.44483">
        <ele>298</ele>
        <time>2012-03-04T08:09:00.454Z</time>
      </trkpt>
      <trkpt lat="43.55627" lon="1.44457">
        <ele>289</ele>
        <time>2012-03-04T08:09:05.459Z</time>
      </trkpt>
      <trkpt lat="43.55569" lon="1.44415">
        <ele>282</ele>
        <time>2012-03-04T08:09:10.456Z</time>
      </trkpt>
      <trkpt lat="43.55505" lon="1.44373">
        <ele>271</ele>
        <time>2012-03-04T08:09:15.459Z</time>
      </trkpt>
      <trkpt lat="43.55439" lon="1.44331">
        <ele>263</ele>
        <time>2012-03-04T08:09:20.452Z</time>
      </trkpt>
      <trkpt lat="43.55404" lon="1.44296">
        <ele>265</ele>
        <time>2012-03-04T08:09:25.456Z</time>
      </trkpt>
      <trkpt lat="43.55388" lon="1.44299">
        <ele>266</ele>
        <time>2012-03-04T08:09:30.454Z</time>
      </trkpt>
      <trkpt lat="43.55378" lon="1.443">
        <ele>267</ele>
        <time>2012-03-04T08:09:35.448Z</time>
      </trkpt>
      <trkpt lat="43.55358" lon="1.44298">
        <ele>270</ele>
        <time>2012-03-04T08:09:50.473Z</time>
      </trkpt>
      <trkpt lat="43.55326" lon="1.44283">
        <ele>270</ele>
        <time>2012-03-04T08:10:05.472Z</time>
      </trkpt>
      <trkpt lat="43.55305" lon="1.44278">
        <ele>270</ele>
        <time>2012-03-04T08:10:10.468Z</time>
      </trkpt>
      <trkpt lat="43.55285" lon="1.44284">
        <ele>270</ele>
        <time>2012-03-04T08:10:15.475Z</time>
      </trkpt>
      <trkpt lat="43.55265" lon="1.44279">
        <ele>270</ele>
        <time>2012-03-04T08:10:20.477Z</time>
      </trkpt>
      <trkpt lat="43.55242" lon="1.44289">
        <ele>270</ele>
        <time>2012-03-04T08:10:25.475Z</time>
      </trkpt>
      <trkpt lat="43.55204" lon="1.44301">
        <ele>268</ele>
        <time>2012-03-04T08:10:30.477Z</time>
      </trkpt>
      <trkpt lat="43.55174" lon="1.44289">
        <ele>266</ele>
        <time>2012-03-04T08:10:35.469Z</time>
      </trkpt>
      <trkpt lat="43.55161" lon="1.44269">
        <ele>264</ele>
        <time>2012-03-04T08:10:40.479Z</time>
      </trkpt>
      <trkpt lat="43.55139" lon="1.44244">
        <ele>264</ele>
        <time>2012-03-04T08:10:54.999Z</time>
      </trkpt>
      <trkpt lat="43.55133" lon="1.44218">
        <ele>265</ele>
        <time>2012-03-04T08:11:05.472Z</time>
      </trkpt>
      <trkpt lat="43.55125" lon="1.44214">
        <ele>267</ele>
        <time>2012-03-04T08:11:10.475Z</time>
      </trkpt>
      <trkpt lat="43.55118" lon="1.44212">
        <ele>269</ele>
        <time>2012-03-04T08:11:15.476Z</time>
      </trkpt>
      <trkpt lat="43.5511" lon="1.4421">
        <ele>271</ele>
        <time>2012-03-04T08:11:20.477Z</time>
      </trkpt>
      <trkpt lat="43.55109" lon="1.44217">
        <ele>270</ele>
        <time>2012-03-04T08:11:25.475Z</time>
      </trkpt>
      <trkpt lat="43.55116" lon="1.44225">
        <ele>270</ele>
        <time>2012-03-04T08:11:30.474Z</time>
      </trkpt>
      <trkpt lat="43.55121" lon="1.44235">
        <ele>270</ele>
        <time>2012-03-04T08:11:35.475Z</time>
      </trkpt>
      <trkpt lat="43.55131" lon="1.44255">
        <ele>270</ele>
        <time>2012-03-04T08:12:10.474Z</time>
      </trkpt>
      <trkpt lat="43.55126" lon="1.44261">
        <ele>269</ele>
        <time>2012-03-04T08:12:15.474Z</time>
      </trkpt>
      <trkpt lat="43.55119" lon="1.44273">
        <ele>268</ele>
        <time>2012-03-04T08:12:20.474Z</time>
      </trkpt>
      <trkpt lat="43.55113" lon="1.44287">
        <ele>268</ele>
        <time>2012-03-04T08:12:25.479Z</time>
      </trkpt>
      <trkpt lat="43.55107" lon="1.44304">
        <ele>267</ele>
        <time>2012-03-04T08:12:30.477Z</time>
      </trkpt>
      <trkpt lat="43.55107" lon="1.44322">
        <ele>267</ele>
        <time>2012-03-04T08:12:35.478Z</time>
      </trkpt>
      <trkpt lat="43.55113" lon="1.44342">
        <ele>269</ele>
        <time>2012-03-04T08:12:40.477Z</time>
      </trkpt>
      <trkpt lat="43.55128" lon="1.44365">
        <ele>268</ele>
        <time>2012-03-04T08:12:45.479Z</time>
      </trkpt>
      <trkpt lat="43.55132" lon="1.44393">
        <ele>269</ele>
        <time>2012-03-04T08:12:50.479Z</time>
      </trkpt>
      <trkpt lat="43.55126" lon="1.44419">
        <ele>269</ele>
        <time>2012-03-04T08:12:55.478Z</time>
      </trkpt>
      <trkpt lat="43.5512" lon="1.44443">
        <ele>269</ele>
        <time>2012-03-04T08:13:00.479Z</time>
      </trkpt>
      <trkpt lat="43.55116" lon="1.44463">
        <ele>269</ele>
        <time>2012-03-04T08:13:05.482Z</time>
      </trkpt>
      <trkpt lat="43.55112" lon="1.44479">
        <ele>270</ele>
        <time>2012-03-04T08:13:10.479Z</time>
      </trkpt>
      <trkpt lat="43.55105" lon="1.44507">
        <ele>272</ele>
        <time>2012-03-04T08:13:40.481Z</time>
      </trkpt>
      <trkpt lat="43.55097" lon="1.44539">
        <ele>272</ele>
        <time>2012-03-04T08:13:50.477Z</time>
      </trkpt>
      <trkpt lat="43.55094" lon="1.4455">
        <ele>273</ele>
        <time>2012-03-04T08:13:55.481Z</time>
      </trkpt>
      <trkpt lat="43.55091" lon="1.44561">
        <ele>272</ele>
        <time>2012-03-04T08:14:00.512Z</time>
      </trkpt>
      <trkpt lat="43.55088" lon="1.44574">
        <ele>273</ele>
        <time>2012-03-04T08:14:05.484Z</time>
      </trkpt>
      <trkpt lat="43.55084" lon="1.44587">
        <ele>274</ele>
        <time>2012-03-04T08:14:10.479Z</time>
      </trkpt>
      <trkpt lat="43.55081" lon="1.446">
        <ele>275</ele>
        <time>2012-03-04T08:14:15.480Z</time>
      </trkpt>
      <trkpt lat="43.55078" lon="1.44612">
        <ele>275</ele>
        <time>2012-03-04T08:14:20.396Z</time>
      </trkpt>
      <trkpt lat="43.55075" lon="1.44624">
        <ele>275</ele>
        <time>2012-03-04T08:14:25.397Z</time>
      </trkpt>
      <trkpt lat="43.55073" lon="1.44636">
        <ele>275</ele>
        <time>2012-03-04T08:14:30.399Z</time>
      </trkpt>
      <trkpt lat="43.5507" lon="1.44648">
        <ele>276</ele>
        <time>2012-03-04T08:14:35.400Z</time>
      </trkpt>
      <trkpt lat="43.55066" lon="1.44661">
        <ele>276</ele>
        <time>2012-03-04T08:14:40.399Z</time>
      </trkpt>
      <trkpt lat="43.55058" lon="1.44673">
        <ele>276</ele>
        <time>2012-03-04T08:14:45.403Z</time>
      </trkpt>
      <trkpt lat="43.55052" lon="1.44698">
        <ele>276</ele>
        <time>2012-03-04T08:14:50.398Z</time>
      </trkpt>
      <trkpt lat="43.55045" lon="1.44722">
        <ele>276</ele>
        <time>2012-03-04T08:14:55.401Z</time>
      </trkpt>
      <trkpt lat="43.55039" lon="1.44743">
        <ele>275</ele>
        <time>2012-03-04T08:15:01.277Z</time>
      </trkpt>
      <trkpt lat="43.55035" lon="1.44757">
        <ele>278</ele>
        <time>2012-03-04T08:15:05.391Z</time>
      </trkpt>
      <trkpt lat="43.55029" lon="1.44772">
        <ele>278</ele>
        <time>2012-03-04T08:15:10.401Z</time>
      </trkpt>
      <trkpt lat="43.55024" lon="1.44789">
        <ele>278</ele>
        <time>2012-03-04T08:15:15.405Z</time>
      </trkpt>
      <trkpt lat="43.55016" lon="1.44805">
        <ele>278</ele>
        <time>2012-03-04T08:15:20.400Z</time>
      </trkpt>
      <trkpt lat="43.55009" lon="1.44822">
        <ele>277</ele>
        <time>2012-03-04T08:15:25.400Z</time>
      </trkpt>
      <trkpt lat="43.55004" lon="1.44841">
        <ele>277</ele>
        <time>2012-03-04T08:15:30.398Z</time>
      </trkpt>
      <trkpt lat="43.54998" lon="1.44859">
        <ele>278</ele>
        <time>2012-03-04T08:15:35.405Z</time>
      </trkpt>
      <trkpt lat="43.54986" lon="1.44895">
        <ele>280</ele>
        <time>2012-03-04T08:15:45.406Z</time>
      </trkpt>
      <trkpt lat="43.5498" lon="1.44912">
        <ele>281</ele>
        <time>2012-03-04T08:15:50.400Z</time>
      </trkpt>
      <trkpt lat="43.54974" lon="1.44933">
        <ele>280</ele>
        <time>2012-03-04T08:15:55.402Z</time>
      </trkpt>
      <trkpt lat="43.54968" lon="1.44948">
        <ele>280</ele>
        <time>2012-03-04T08:15:59.403Z</time>
      </trkpt>
      <trkpt lat="43.54964" lon="1.4497">
        <ele>281</ele>
        <time>2012-03-04T08:16:04.409Z</time>
      </trkpt>
      <trkpt lat="43.54957" lon="1.44993">
        <ele>280</ele>
        <time>2012-03-04T08:16:09.402Z</time>
      </trkpt>
      <trkpt lat="43.54952" lon="1.45017">
        <ele>280</ele>
        <time>2012-03-04T08:16:14.401Z</time>
      </trkpt>
      <trkpt lat="43.54948" lon="1.45044">
        <ele>281</ele>
        <time>2012-03-04T08:16:19.403Z</time>
      </trkpt>
      <trkpt lat="43.54944" lon="1.45069">
        <ele>283</ele>
        <time>2012-03-04T08:16:24.398Z</time>
      </trkpt>
      <trkpt lat="43.54938" lon="1.45094">
        <ele>282</ele>
        <time>2012-03-04T08:16:28.410Z</time>
      </trkpt>
      <trkpt lat="43.54929" lon="1.45126">
        <ele>281</ele>
        <time>2012-03-04T08:16:33.407Z</time>
      </trkpt>
      <trkpt lat="43.54919" lon="1.45158">
        <ele>280</ele>
        <time>2012-03-04T08:16:38.405Z</time>
      </trkpt>
      <trkpt lat="43.54903" lon="1.45184">
        <ele>281</ele>
        <time>2012-03-04T08:16:43.405Z</time>
      </trkpt>
      <trkpt lat="43.54885" lon="1.45206">
        <ele>280</ele>
        <time>2012-03-04T08:16:48.408Z</time>
      </trkpt>
      <trkpt lat="43.54868" lon="1.45225">
        <ele>280</ele>
        <time>2012-03-04T08:16:53.399Z</time>
      </trkpt>
      <trkpt lat="43.54847" lon="1.45291">
        <ele>282</ele>
        <time>2012-03-04T08:17:08.402Z</time>
      </trkpt>
      <trkpt lat="43.54845" lon="1.45338">
        <ele>285</ele>
        <time>2012-03-04T08:17:18.405Z</time>
      </trkpt>
      <trkpt lat="43.54841" lon="1.45363">
        <ele>285</ele>
        <time>2012-03-04T08:17:23.406Z</time>
      </trkpt>
      <trkpt lat="43.54826" lon="1.45375">
        <ele>285</ele>
        <time>2012-03-04T08:17:28.402Z</time>
      </trkpt>
      <trkpt lat="43.54811" lon="1.4538">
        <ele>286</ele>
        <time>2012-03-04T08:17:33.409Z</time>
      </trkpt>
      <trkpt lat="43.54798" lon="1.45373">
        <ele>288</ele>
        <time>2012-03-04T08:17:38.404Z</time>
      </trkpt>
      <trkpt lat="43.54779" lon="1.45365">
        <ele>288</ele>
        <time>2012-03-04T08:17:43.403Z</time>
      </trkpt>
      <trkpt lat="43.5476" lon="1.45356">
        <ele>287</ele>
        <time>2012-03-04T08:17:48.404Z</time>
      </trkpt>
      <trkpt lat="43.54738" lon="1.45345">
        <ele>288</ele>
        <time>2012-03-04T08:17:53.408Z</time>
      </trkpt>
      <trkpt lat="43.54711" lon="1.4533">
        <ele>286</ele>
        <time>2012-03-04T08:17:58.404Z</time>
      </trkpt>
      <trkpt lat="43.54684" lon="1.45324">
        <ele>286</ele>
        <time>2012-03-04T08:18:03.407Z</time>
      </trkpt>
      <trkpt lat="43.54664" lon="1.45318">
        <ele>284</ele>
        <time>2012-03-04T08:18:08.403Z</time>
      </trkpt>
      <trkpt lat="43.54644" lon="1.45313">
        <ele>283</ele>
        <time>2012-03-04T08:18:13.405Z</time>
      </trkpt>
      <trkpt lat="43.5463" lon="1.4532">
        <ele>283</ele>
        <time>2012-03-04T08:18:18.410Z</time>
      </trkpt>
      <trkpt lat="43.54615" lon="1.45311">
        <ele>282</ele>
        <time>2012-03-04T08:18:23.406Z</time>
      </trkpt>
      <trkpt lat="43.54601" lon="1.4531">
        <ele>283</ele>
        <time>2012-03-04T08:18:28.405Z</time>
      </trkpt>
      <trkpt lat="43.54586" lon="1.45311">
        <ele>282</ele>
        <time>2012-03-04T08:18:33.409Z</time>
      </trkpt>
      <trkpt lat="43.54572" lon="1.45317">
        <ele>283</ele>
        <time>2012-03-04T08:18:38.405Z</time>
      </trkpt>
      <trkpt lat="43.54532" lon="1.45357">
        <ele>280</ele>
        <time>2012-03-04T08:18:53.409Z</time>
      </trkpt>
      <trkpt lat="43.54524" lon="1.45371">
        <ele>281</ele>
        <time>2012-03-04T08:18:58.404Z</time>
      </trkpt>
      <trkpt lat="43.54514" lon="1.45415">
        <ele>281</ele>
        <time>2012-03-04T08:19:08.407Z</time>
      </trkpt>
      <trkpt lat="43.54504" lon="1.45434">
        <ele>281</ele>
        <time>2012-03-04T08:19:13.406Z</time>
      </trkpt>
      <trkpt lat="43.54493" lon="1.4545">
        <ele>282</ele>
        <time>2012-03-04T08:19:18.406Z</time>
      </trkpt>
      <trkpt lat="43.54481" lon="1.45468">
        <ele>282</ele>
        <time>2012-03-04T08:19:23.410Z</time>
      </trkpt>
      <trkpt lat="43.54469" lon="1.45486">
        <ele>282</ele>
        <time>2012-03-04T08:19:28.409Z</time>
      </trkpt>
      <trkpt lat="43.54458" lon="1.45501">
        <ele>283</ele>
        <time>2012-03-04T08:19:33.410Z</time>
      </trkpt>
      <trkpt lat="43.54443" lon="1.45521">
        <ele>283</ele>
        <time>2012-03-04T08:19:38.412Z</time>
      </trkpt>
      <trkpt lat="43.54429" lon="1.45543">
        <ele>282</ele>
        <time>2012-03-04T08:19:43.407Z</time>
      </trkpt>
      <trkpt lat="43.54415" lon="1.45571">
        <ele>281</ele>
        <time>2012-03-04T08:19:48.406Z</time>
      </trkpt>
      <trkpt lat="43.54399" lon="1.45601">
        <ele>280</ele>
        <time>2012-03-04T08:19:53.411Z</time>
      </trkpt>
      <trkpt lat="43.54384" lon="1.45629">
        <ele>279</ele>
        <time>2012-03-04T08:19:58.408Z</time>
      </trkpt>
      <trkpt lat="43.54369" lon="1.45656">
        <ele>278</ele>
        <time>2012-03-04T08:20:03.409Z</time>
      </trkpt>
      <trkpt lat="43.54355" lon="1.4568">
        <ele>276</ele>
        <time>2012-03-04T08:20:08.407Z</time>
      </trkpt>
      <trkpt lat="43.5434" lon="1.45698">
        <ele>276</ele>
        <time>2012-03-04T08:20:13.408Z</time>
      </trkpt>
      <trkpt lat="43.5432" lon="1.45685">
        <ele>276</ele>
        <time>2012-03-04T08:20:18.427Z</time>
      </trkpt>
      <trkpt lat="43.54305" lon="1.45671">
        <ele>277</ele>
        <time>2012-03-04T08:20:23.430Z</time>
      </trkpt>
      <trkpt lat="43.54293" lon="1.45661">
        <ele>277</ele>
        <time>2012-03-04T08:20:28.425Z</time>
      </trkpt>
      <trkpt lat="43.54281" lon="1.4565">
        <ele>278</ele>
        <time>2012-03-04T08:20:53.433Z</time>
      </trkpt>
      <trkpt lat="43.5427" lon="1.45641">
        <ele>279</ele>
        <time>2012-03-04T08:20:58.429Z</time>
      </trkpt>
      <trkpt lat="43.5426" lon="1.45632">
        <ele>280</ele>
        <time>2012-03-04T08:21:03.431Z</time>
      </trkpt>
      <trkpt lat="43.54249" lon="1.45621">
        <ele>280</ele>
        <time>2012-03-04T08:21:08.429Z</time>
      </trkpt>
      <trkpt lat="43.5424" lon="1.45613">
        <ele>282</ele>
        <time>2012-03-04T08:21:13.429Z</time>
      </trkpt>
      <trkpt lat="43.54233" lon="1.45605">
        <ele>283</ele>
        <time>2012-03-04T08:21:18.430Z</time>
      </trkpt>
      <trkpt lat="43.54227" lon="1.45597">
        <ele>284</ele>
        <time>2012-03-04T08:21:23.428Z</time>
      </trkpt>
      <trkpt lat="43.54221" lon="1.45591">
        <ele>285</ele>
        <time>2012-03-04T08:21:28.431Z</time>
      </trkpt>
      <trkpt lat="43.54217" lon="1.45585">
        <ele>286</ele>
        <time>2012-03-04T08:21:33.431Z</time>
      </trkpt>
      <trkpt lat="43.54213" lon="1.45575">
        <ele>286</ele>
        <time>2012-03-04T08:21:38.429Z</time>
      </trkpt>
      <trkpt lat="43.54208" lon="1.45569">
        <ele>288</ele>
        <time>2012-03-04T08:21:43.429Z</time>
      </trkpt>
      <trkpt lat="43.54203" lon="1.45563">
        <ele>289</ele>
        <time>2012-03-04T08:21:48.427Z</time>
      </trkpt>
      <trkpt lat="43.54197" lon="1.45557">
        <ele>291</ele>
        <time>2012-03-04T08:21:53.430Z</time>
      </trkpt>
      <trkpt lat="43.54191" lon="1.45551">
        <ele>292</ele>
        <time>2012-03-04T08:21:58.429Z</time>
      </trkpt>
      <trkpt lat="43.54184" lon="1.45545">
        <ele>294</ele>
        <time>2012-03-04T08:22:03.430Z</time>
      </trkpt>
      <trkpt lat="43.54179" lon="1.45539">
        <ele>294</ele>
        <time>2012-03-04T08:22:08.428Z</time>
      </trkpt>
      <trkpt lat="43.54172" lon="1.45532">
        <ele>295</ele>
        <time>2012-03-04T08:22:13.427Z</time>
      </trkpt>
      <trkpt lat="43.54149" lon="1.45512">
        <ele>297</ele>
        <time>2012-03-04T08:22:28.431Z</time>
      </trkpt>
      <trkpt lat="43.54134" lon="1.45502">
        <ele>299</ele>
        <time>2012-03-04T08:22:38.430Z</time>
      </trkpt>
      <trkpt lat="43.54127" lon="1.45496">
        <ele>300</ele>
        <time>2012-03-04T08:22:43.433Z</time>
      </trkpt>
      <trkpt lat="43.5412" lon="1.45491">
        <ele>301</ele>
        <time>2012-03-04T08:22:48.431Z</time>
      </trkpt>
      <trkpt lat="43.54111" lon="1.45484">
        <ele>301</ele>
        <time>2012-03-04T08:22:53.440Z</time>
      </trkpt>
      <trkpt lat="43.54101" lon="1.45477">
        <ele>302</ele>
        <time>2012-03-04T08:22:58.434Z</time>
      </trkpt>
      <trkpt lat="43.54093" lon="1.45471">
        <ele>302</ele>
        <time>2012-03-04T08:23:03.436Z</time>
      </trkpt>
      <trkpt lat="43.54086" lon="1.45467">
        <ele>304</ele>
        <time>2012-03-04T08:23:08.430Z</time>
      </trkpt>
      <trkpt lat="43.54078" lon="1.45466">
        <ele>305</ele>
        <time>2012-03-04T08:23:13.431Z</time>
      </trkpt>
      <trkpt lat="43.54069" lon="1.45465">
        <ele>306</ele>
        <time>2012-03-04T08:23:18.432Z</time>
      </trkpt>
      <trkpt lat="43.54061" lon="1.45468">
        <ele>305</ele>
        <time>2012-03-04T08:23:23.435Z</time>
      </trkpt>
      <trkpt lat="43.54057" lon="1.45471">
        <ele>305</ele>
        <time>2012-03-04T08:23:28.431Z</time>
      </trkpt>
      <trkpt lat="43.5405" lon="1.45472">
        <ele>305</ele>
        <time>2012-03-04T08:23:33.435Z</time>
      </trkpt>
      <trkpt lat="43.5404" lon="1.45475">
        <ele>305</ele>
        <time>2012-03-04T08:23:38.431Z</time>
      </trkpt>
      <trkpt lat="43.54015" lon="1.45472">
        <ele>301</ele>
        <time>2012-03-04T08:25:58.453Z</time>
      </trkpt>
      <trkpt lat="43.53974" lon="1.45476">
        <ele>297</ele>
        <time>2012-03-04T08:26:03.459Z</time>
      </trkpt>
      <trkpt lat="43.53937" lon="1.45478">
        <ele>289</ele>
        <time>2012-03-04T08:26:08.459Z</time>
      </trkpt>
      <trkpt lat="43.53919" lon="1.45465">
        <ele>283</ele>
        <time>2012-03-04T08:26:13.458Z</time>
      </trkpt>
      <trkpt lat="43.53912" lon="1.45455">
        <ele>282</ele>
        <time>2012-03-04T08:26:18.456Z</time>
      </trkpt>
      <trkpt lat="43.53907" lon="1.45445">
        <ele>280</ele>
        <time>2012-03-04T08:26:23.458Z</time>
      </trkpt>
      <trkpt lat="43.53898" lon="1.45445">
        <ele>278</ele>
        <time>2012-03-04T08:26:28.458Z</time>
      </trkpt>
      <trkpt lat="43.53894" lon="1.4544">
        <ele>277</ele>
        <time>2012-03-04T08:26:33.462Z</time>
      </trkpt>
      <trkpt lat="43.53883" lon="1.4543">
        <ele>275</ele>
        <time>2012-03-04T08:26:38.455Z</time>
      </trkpt>
      <trkpt lat="43.53874" lon="1.45406">
        <ele>272</ele>
        <time>2012-03-04T08:26:43.458Z</time>
      </trkpt>
      <trkpt lat="43.53868" lon="1.45393">
        <ele>269</ele>
        <time>2012-03-04T08:26:48.458Z</time>
      </trkpt>
      <trkpt lat="43.53854" lon="1.45381">
        <ele>268</ele>
        <time>2012-03-04T08:26:53.459Z</time>
      </trkpt>
      <trkpt lat="43.53833" lon="1.45392">
        <ele>267</ele>
        <time>2012-03-04T08:26:58.459Z</time>
      </trkpt>
      <trkpt lat="43.53819" lon="1.45405">
        <ele>266</ele>
        <time>2012-03-04T08:27:03.461Z</time>
      </trkpt>
      <trkpt lat="43.53806" lon="1.45417">
        <ele>264</ele>
        <time>2012-03-04T08:27:08.462Z</time>
      </trkpt>
      <trkpt lat="43.53792" lon="1.4543">
        <ele>263</ele>
        <time>2012-03-04T08:27:13.458Z</time>
      </trkpt>
      <trkpt lat="43.53775" lon="1.45441">
        <ele>261</ele>
        <time>2012-03-04T08:27:18.464Z</time>
      </trkpt>
      <trkpt lat="43.53765" lon="1.45448">
        <ele>260</ele>
        <time>2012-03-04T08:27:23.460Z</time>
      </trkpt>
      <trkpt lat="43.53763" lon="1.45453">
        <ele>260</ele>
        <time>2012-03-04T08:31:27.487Z</time>
      </trkpt>
      <trkpt lat="43.53745" lon="1.45469">
        <ele>258</ele>
        <time>2012-03-04T08:31:32.484Z</time>
      </trkpt>
      <trkpt lat="43.53711" lon="1.45487">
        <ele>256</ele>
        <time>2012-03-04T08:31:37.488Z</time>
      </trkpt>
      <trkpt lat="43.53678" lon="1.45517">
        <ele>254</ele>
        <time>2012-03-04T08:31:42.487Z</time>
      </trkpt>
      <trkpt lat="43.53663" lon="1.4552">
        <ele>254</ele>
        <time>2012-03-04T08:31:47.485Z</time>
      </trkpt>
      <trkpt lat="43.53644" lon="1.45515">
        <ele>253</ele>
        <time>2012-03-04T08:31:52.487Z</time>
      </trkpt>
      <trkpt lat="43.53614" lon="1.45516">
        <ele>249</ele>
        <time>2012-03-04T08:31:57.488Z</time>
      </trkpt>
      <trkpt lat="43.53577" lon="1.45565">
        <ele>243</ele>
        <time>2012-03-04T08:32:12.492Z</time>
      </trkpt>
      <trkpt lat="43.53543" lon="1.45558">
        <ele>239</ele>
        <time>2012-03-04T08:32:17.487Z</time>
      </trkpt>
      <trkpt lat="43.53511" lon="1.45592">
        <ele>236</ele>
        <time>2012-03-04T08:32:22.491Z</time>
      </trkpt>
      <trkpt lat="43.53484" lon="1.45629">
        <ele>236</ele>
        <time>2012-03-04T08:32:27.490Z</time>
      </trkpt>
      <trkpt lat="43.53463" lon="1.45659">
        <ele>234</ele>
        <time>2012-03-04T08:32:32.486Z</time>
      </trkpt>
      <trkpt lat="43.53442" lon="1.45681">
        <ele>238</ele>
        <time>2012-03-04T08:33:02.480Z</time>
      </trkpt>
      <trkpt lat="43.5343" lon="1.45676">
        <ele>237</ele>
        <time>2012-03-04T08:33:12.488Z</time>
      </trkpt>
      <trkpt lat="43.53413" lon="1.45672">
        <ele>237</ele>
        <time>2012-03-04T08:33:22.490Z</time>
      </trkpt>
      <trkpt lat="43.53402" lon="1.45668">
        <ele>236</ele>
        <time>2012-03-04T08:33:27.491Z</time>
      </trkpt>
      <trkpt lat="43.53386" lon="1.45656">
        <ele>237</ele>
        <time>2012-03-04T08:33:37.488Z</time>
      </trkpt>
      <trkpt lat="43.53375" lon="1.45648">
        <ele>238</ele>
        <time>2012-03-04T08:33:42.490Z</time>
      </trkpt>
      <trkpt lat="43.53368" lon="1.45642">
        <ele>239</ele>
        <time>2012-03-04T08:33:47.491Z</time>
      </trkpt>
      <trkpt lat="43.53361" lon="1.45636">
        <ele>241</ele>
        <time>2012-03-04T08:33:52.488Z</time>
      </trkpt>
      <trkpt lat="43.53355" lon="1.45628">
        <ele>241</ele>
        <time>2012-03-04T08:33:57.490Z</time>
      </trkpt>
      <trkpt lat="43.5335" lon="1.45622">
        <ele>242</ele>
        <time>2012-03-04T08:34:02.491Z</time>
      </trkpt>
      <trkpt lat="43.53332" lon="1.45606">
        <ele>244</ele>
        <time>2012-03-04T08:34:17.489Z</time>
      </trkpt>
      <trkpt lat="43.53308" lon="1.4558">
        <ele>244</ele>
        <time>2012-03-04T08:34:37.495Z</time>
      </trkpt>
      <trkpt lat="43.533" lon="1.45569">
        <ele>245</ele>
        <time>2012-03-04T08:34:46.495Z</time>
      </trkpt>
      <trkpt lat="43.53295" lon="1.45563">
        <ele>246</ele>
        <time>2012-03-04T08:34:51.495Z</time>
      </trkpt>
      <trkpt lat="43.53289" lon="1.45556">
        <ele>247</ele>
        <time>2012-03-04T08:34:56.493Z</time>
      </trkpt>
      <trkpt lat="43.53282" lon="1.45551">
        <ele>248</ele>
        <time>2012-03-04T08:35:01.489Z</time>
      </trkpt>
      <trkpt lat="43.53274" lon="1.45548">
        <ele>249</ele>
        <time>2012-03-04T08:35:06.492Z</time>
      </trkpt>
      <trkpt lat="43.53268" lon="1.45544">
        <ele>250</ele>
        <time>2012-03-04T08:35:11.494Z</time>
      </trkpt>
      <trkpt lat="43.53249" lon="1.4554">
        <ele>252</ele>
        <time>2012-03-04T08:35:26.492Z</time>
      </trkpt>
      <trkpt lat="43.53234" lon="1.45539">
        <ele>254</ele>
        <time>2012-03-04T08:35:36.493Z</time>
      </trkpt>
      <trkpt lat="43.53228" lon="1.45538">
        <ele>255</ele>
        <time>2012-03-04T08:35:41.499Z</time>
      </trkpt>
      <trkpt lat="43.53221" lon="1.4554">
        <ele>256</ele>
        <time>2012-03-04T08:35:46.497Z</time>
      </trkpt>
      <trkpt lat="43.53207" lon="1.45546">
        <ele>257</ele>
        <time>2012-03-04T08:35:56.494Z</time>
      </trkpt>
      <trkpt lat="43.53207" lon="1.45546">
        <ele>257</ele>
        <time>2012-03-04T08:35:56.494Z</time>
      </trkpt>
      <trkpt lat="43.53184" lon="1.45558">
        <ele>262</ele>
        <time>2012-03-04T08:36:16.495Z</time>
      </trkpt>
      <trkpt lat="43.53178" lon="1.45561">
        <ele>263</ele>
        <time>2012-03-04T08:36:21.496Z</time>
      </trkpt>
      <trkpt lat="43.53172" lon="1.45564">
        <ele>264</ele>
        <time>2012-03-04T08:36:26.494Z</time>
      </trkpt>
      <trkpt lat="43.53165" lon="1.45568">
        <ele>265</ele>
        <time>2012-03-04T08:36:31.494Z</time>
      </trkpt>
      <trkpt lat="43.53159" lon="1.45572">
        <ele>266</ele>
        <time>2012-03-04T08:36:36.493Z</time>
      </trkpt>
      <trkpt lat="43.53153" lon="1.45573">
        <ele>267</ele>
        <time>2012-03-04T08:36:41.498Z</time>
      </trkpt>
      <trkpt lat="43.53147" lon="1.45576">
        <ele>268</ele>
        <time>2012-03-04T08:36:46.495Z</time>
      </trkpt>
      <trkpt lat="43.53142" lon="1.45577">
        <ele>269</ele>
        <time>2012-03-04T08:36:51.497Z</time>
      </trkpt>
      <trkpt lat="43.53136" lon="1.45577">
        <ele>271</ele>
        <time>2012-03-04T08:36:56.491Z</time>
      </trkpt>
      <trkpt lat="43.53129" lon="1.45578">
        <ele>271</ele>
        <time>2012-03-04T08:37:01.495Z</time>
      </trkpt>
      <trkpt lat="43.53116" lon="1.4558">
        <ele>274</ele>
        <time>2012-03-04T08:37:11.497Z</time>
      </trkpt>
      <trkpt lat="43.53111" lon="1.45581">
        <ele>275</ele>
        <time>2012-03-04T08:37:16.495Z</time>
      </trkpt>
      <trkpt lat="43.53105" lon="1.45581">
        <ele>275</ele>
        <time>2012-03-04T08:37:21.497Z</time>
      </trkpt>
      <trkpt lat="43.53099" lon="1.45583">
        <ele>277</ele>
        <time>2012-03-04T08:37:26.497Z</time>
      </trkpt>
      <trkpt lat="43.53093" lon="1.45584">
        <ele>278</ele>
        <time>2012-03-04T08:37:31.496Z</time>
      </trkpt>
      <trkpt lat="43.53087" lon="1.45584">
        <ele>279</ele>
        <time>2012-03-04T08:37:36.497Z</time>
      </trkpt>
      <trkpt lat="43.53082" lon="1.45585">
        <ele>280</ele>
        <time>2012-03-04T08:37:41.498Z</time>
      </trkpt>
      <trkpt lat="43.53076" lon="1.45587">
        <ele>281</ele>
        <time>2012-03-04T08:37:46.498Z</time>
      </trkpt>
      <trkpt lat="43.53069" lon="1.4559">
        <ele>282</ele>
        <time>2012-03-04T08:37:51.499Z</time>
      </trkpt>
      <trkpt lat="43.53063" lon="1.45591">
        <ele>283</ele>
        <time>2012-03-04T08:37:56.499Z</time>
      </trkpt>
      <trkpt lat="43.53056" lon="1.45593">
        <ele>283</ele>
        <time>2012-03-04T08:38:01.496Z</time>
      </trkpt>
      <trkpt lat="43.53049" lon="1.45593">
        <ele>284</ele>
        <time>2012-03-04T08:38:06.497Z</time>
      </trkpt>
      <trkpt lat="43.53043" lon="1.45595">
        <ele>285</ele>
        <time>2012-03-04T08:38:11.496Z</time>
      </trkpt>
      <trkpt lat="43.53035" lon="1.45599">
        <ele>286</ele>
        <time>2012-03-04T08:38:16.495Z</time>
      </trkpt>
      <trkpt lat="43.53029" lon="1.45603">
        <ele>287</ele>
        <time>2012-03-04T08:38:21.500Z</time>
      </trkpt>
      <trkpt lat="43.5301" lon="1.45614">
        <ele>290</ele>
        <time>2012-03-04T08:38:36.499Z</time>
      </trkpt>
      <trkpt lat="43.53005" lon="1.45618">
        <ele>291</ele>
        <time>2012-03-04T08:38:41.500Z</time>
      </trkpt>
      <trkpt lat="43.52999" lon="1.45623">
        <ele>291</ele>
        <time>2012-03-04T08:38:46.498Z</time>
      </trkpt>
      <trkpt lat="43.52984" lon="1.45633">
        <ele>292</ele>
        <time>2012-03-04T08:38:56.498Z</time>
      </trkpt>
      <trkpt lat="43.52984" lon="1.45633">
        <ele>292</ele>
        <time>2012-03-04T08:38:56.498Z</time>
      </trkpt>
      <trkpt lat="43.52971" lon="1.4564">
        <ele>294</ele>
        <time>2012-03-04T08:39:06.497Z</time>
      </trkpt>
      <trkpt lat="43.52966" lon="1.45645">
        <ele>295</ele>
        <time>2012-03-04T08:39:11.503Z</time>
      </trkpt>
      <trkpt lat="43.52971" lon="1.45657">
        <ele>301</ele>
        <time>2012-03-04T08:43:26.504Z</time>
      </trkpt>
      <trkpt lat="43.52966" lon="1.45648">
        <ele>299</ele>
        <time>2012-03-04T08:43:31.508Z</time>
      </trkpt>
      <trkpt lat="43.52961" lon="1.45638">
        <ele>297</ele>
        <time>2012-03-04T08:43:36.506Z</time>
      </trkpt>
      <trkpt lat="43.52949" lon="1.45641">
        <ele>296</ele>
        <time>2012-03-04T08:43:41.509Z</time>
      </trkpt>
      <trkpt lat="43.52941" lon="1.45649">
        <ele>298</ele>
        <time>2012-03-04T08:43:46.504Z</time>
      </trkpt>
      <trkpt lat="43.52921" lon="1.45675">
        <ele>302</ele>
        <time>2012-03-04T08:44:01.508Z</time>
      </trkpt>
      <trkpt lat="43.52911" lon="1.45686">
        <ele>302</ele>
        <time>2012-03-04T08:44:06.505Z</time>
      </trkpt>
      <trkpt lat="43.52902" lon="1.45695">
        <ele>303</ele>
        <time>2012-03-04T08:44:11.506Z</time>
      </trkpt>
      <trkpt lat="43.52883" lon="1.45718">
        <ele>306</ele>
        <time>2012-03-04T08:44:21.509Z</time>
      </trkpt>
      <trkpt lat="43.52877" lon="1.4573">
        <ele>308</ele>
        <time>2012-03-04T08:44:26.505Z</time>
      </trkpt>
      <trkpt lat="43.52869" lon="1.45742">
        <ele>308</ele>
        <time>2012-03-04T08:44:31.504Z</time>
      </trkpt>
      <trkpt lat="43.5286" lon="1.45755">
        <ele>309</ele>
        <time>2012-03-04T08:44:36.507Z</time>
      </trkpt>
      <trkpt lat="43.52852" lon="1.45767">
        <ele>309</ele>
        <time>2012-03-04T08:44:41.510Z</time>
      </trkpt>
      <trkpt lat="43.52842" lon="1.45777">
        <ele>309</ele>
        <time>2012-03-04T08:44:46.506Z</time>
      </trkpt>
      <trkpt lat="43.52834" lon="1.45789">
        <ele>310</ele>
        <time>2012-03-04T08:44:51.509Z</time>
      </trkpt>
      <trkpt lat="43.52826" lon="1.45802">
        <ele>310</ele>
        <time>2012-03-04T08:44:56.534Z</time>
      </trkpt>
      <trkpt lat="43.52815" lon="1.45815">
        <ele>311</ele>
        <time>2012-03-04T08:45:01.508Z</time>
      </trkpt>
      <trkpt lat="43.52806" lon="1.45828">
        <ele>311</ele>
        <time>2012-03-04T08:45:06.511Z</time>
      </trkpt>
      <trkpt lat="43.52794" lon="1.45841">
        <ele>310</ele>
        <time>2012-03-04T08:45:11.506Z</time>
      </trkpt>
      <trkpt lat="43.52783" lon="1.45854">
        <ele>309</ele>
        <time>2012-03-04T08:45:16.508Z</time>
      </trkpt>
      <trkpt lat="43.52771" lon="1.45867">
        <ele>309</ele>
        <time>2012-03-04T08:45:21.511Z</time>
      </trkpt>
      <trkpt lat="43.5276" lon="1.4588">
        <ele>309</ele>
        <time>2012-03-04T08:45:26.509Z</time>
      </trkpt>
      <trkpt lat="43.52753" lon="1.45892">
        <ele>309</ele>
        <time>2012-03-04T08:45:31.501Z</time>
      </trkpt>
      <trkpt lat="43.52742" lon="1.45883">
        <ele>309</ele>
        <time>2012-03-04T08:45:36.499Z</time>
      </trkpt>
      <trkpt lat="43.52724" lon="1.45864">
        <ele>307</ele>
        <time>2012-03-04T08:45:41.507Z</time>
      </trkpt>
      <trkpt lat="43.52693" lon="1.45825">
        <ele>302</ele>
        <time>2012-03-04T08:45:46.509Z</time>
      </trkpt>
      <trkpt lat="43.52663" lon="1.45771">
        <ele>293</ele>
        <time>2012-03-04T08:45:51.512Z</time>
      </trkpt>
      <trkpt lat="43.52616" lon="1.45713">
        <ele>282</ele>
        <time>2012-03-04T08:45:56.508Z</time>
      </trkpt>
      <trkpt lat="43.52565" lon="1.45652">
        <ele>272</ele>
        <time>2012-03-04T08:46:01.496Z</time>
      </trkpt>
      <trkpt lat="43.52531" lon="1.45625">
        <ele>266</ele>
        <time>2012-03-04T08:46:05.508Z</time>
      </trkpt>
      <trkpt lat="43.52503" lon="1.45589">
        <ele>275</ele>
        <time>2012-03-04T08:46:15.510Z</time>
      </trkpt>
      <trkpt lat="43.52501" lon="1.45585">
        <ele>277</ele>
        <time>2012-03-04T08:46:19.510Z</time>
      </trkpt>
      <trkpt lat="43.52497" lon="1.4558">
        <ele>278</ele>
        <time>2012-03-04T08:46:24.514Z</time>
      </trkpt>
      <trkpt lat="43.52492" lon="1.45571">
        <ele>280</ele>
        <time>2012-03-04T08:46:29.512Z</time>
      </trkpt>
      <trkpt lat="43.52489" lon="1.45564">
        <ele>282</ele>
        <time>2012-03-04T08:46:34.511Z</time>
      </trkpt>
      <trkpt lat="43.52486" lon="1.45548">
        <ele>281</ele>
        <time>2012-03-04T08:46:44.514Z</time>
      </trkpt>
      <trkpt lat="43.52483" lon="1.4554">
        <ele>282</ele>
        <time>2012-03-04T08:46:49.511Z</time>
      </trkpt>
      <trkpt lat="43.52479" lon="1.45533">
        <ele>282</ele>
        <time>2012-03-04T08:46:54.511Z</time>
      </trkpt>
      <trkpt lat="43.52477" lon="1.45524">
        <ele>281</ele>
        <time>2012-03-04T08:46:59.506Z</time>
      </trkpt>
      <trkpt lat="43.52467" lon="1.45499">
        <ele>282</ele>
        <time>2012-03-04T08:47:14.511Z</time>
      </trkpt>
      <trkpt lat="43.52454" lon="1.45477">
        <ele>282</ele>
        <time>2012-03-04T08:47:24.514Z</time>
      </trkpt>
      <trkpt lat="43.52445" lon="1.45465">
        <ele>284</ele>
        <time>2012-03-04T08:47:29.512Z</time>
      </trkpt>
      <trkpt lat="43.52437" lon="1.45453">
        <ele>285</ele>
        <time>2012-03-04T08:47:34.513Z</time>
      </trkpt>
      <trkpt lat="43.52429" lon="1.45445">
        <ele>285</ele>
        <time>2012-03-04T08:47:39.511Z</time>
      </trkpt>
      <trkpt lat="43.52423" lon="1.45437">
        <ele>285</ele>
        <time>2012-03-04T08:47:44.513Z</time>
      </trkpt>
      <trkpt lat="43.52417" lon="1.4543">
        <ele>284</ele>
        <time>2012-03-04T08:47:49.512Z</time>
      </trkpt>
      <trkpt lat="43.52406" lon="1.4542">
        <ele>283</ele>
        <time>2012-03-04T08:47:54.511Z</time>
      </trkpt>
      <trkpt lat="43.52378" lon="1.454">
        <ele>281</ele>
        <time>2012-03-04T08:47:59.510Z</time>
      </trkpt>
      <trkpt lat="43.52349" lon="1.45382">
        <ele>278</ele>
        <time>2012-03-04T08:48:04.510Z</time>
      </trkpt>
      <trkpt lat="43.5231" lon="1.4536">
        <ele>276</ele>
        <time>2012-03-04T08:48:09.513Z</time>
      </trkpt>
      <trkpt lat="43.52284" lon="1.45339">
        <ele>276</ele>
        <time>2012-03-04T08:48:14.509Z</time>
      </trkpt>
      <trkpt lat="43.52278" lon="1.4535">
        <ele>277</ele>
        <time>2012-03-04T08:48:19.516Z</time>
      </trkpt>
      <trkpt lat="43.52275" lon="1.45358">
        <ele>277</ele>
        <time>2012-03-04T08:48:24.513Z</time>
      </trkpt>
      <trkpt lat="43.52271" lon="1.45367">
        <ele>279</ele>
        <time>2012-03-04T08:48:29.514Z</time>
      </trkpt>
      <trkpt lat="43.52264" lon="1.45383">
        <ele>282</ele>
        <time>2012-03-04T08:48:39.512Z</time>
      </trkpt>
      <trkpt lat="43.5226" lon="1.4539">
        <ele>282</ele>
        <time>2012-03-04T08:48:44.510Z</time>
      </trkpt>
      <trkpt lat="43.52254" lon="1.454">
        <ele>283</ele>
        <time>2012-03-04T08:48:49.514Z</time>
      </trkpt>
      <trkpt lat="43.52242" lon="1.45421">
        <ele>285</ele>
        <time>2012-03-04T08:49:04.510Z</time>
      </trkpt>
      <trkpt lat="43.5223" lon="1.45444">
        <ele>287</ele>
        <time>2012-03-04T08:49:19.516Z</time>
      </trkpt>
      <trkpt lat="43.52226" lon="1.45454">
        <ele>286</ele>
        <time>2012-03-04T08:49:24.514Z</time>
      </trkpt>
      <trkpt lat="43.52224" lon="1.45463">
        <ele>288</ele>
        <time>2012-03-04T08:49:29.517Z</time>
      </trkpt>
      <trkpt lat="43.52221" lon="1.45473">
        <ele>289</ele>
        <time>2012-03-04T08:49:34.517Z</time>
      </trkpt>
      <trkpt lat="43.52218" lon="1.45482">
        <ele>290</ele>
        <time>2012-03-04T08:49:39.516Z</time>
      </trkpt>
      <trkpt lat="43.52216" lon="1.45491">
        <ele>290</ele>
        <time>2012-03-04T08:49:44.514Z</time>
      </trkpt>
      <trkpt lat="43.52211" lon="1.455">
        <ele>291</ele>
        <time>2012-03-04T08:49:49.516Z</time>
      </trkpt>
      <trkpt lat="43.52209" lon="1.4551">
        <ele>291</ele>
        <time>2012-03-04T08:49:54.514Z</time>
      </trkpt>
      <trkpt lat="43.52205" lon="1.45522">
        <ele>292</ele>
        <time>2012-03-04T08:49:59.513Z</time>
      </trkpt>
      <trkpt lat="43.522" lon="1.45532">
        <ele>294</ele>
        <time>2012-03-04T08:50:04.513Z</time>
      </trkpt>
      <trkpt lat="43.52195" lon="1.45543">
        <ele>294</ele>
        <time>2012-03-04T08:50:09.518Z</time>
      </trkpt>
      <trkpt lat="43.5219" lon="1.4555">
        <ele>296</ele>
        <time>2012-03-04T08:50:14.517Z</time>
      </trkpt>
      <trkpt lat="43.52185" lon="1.45557">
        <ele>296</ele>
        <time>2012-03-04T08:50:19.509Z</time>
      </trkpt>
      <trkpt lat="43.52179" lon="1.45562">
        <ele>297</ele>
        <time>2012-03-04T08:50:24.513Z</time>
      </trkpt>
      <trkpt lat="43.52173" lon="1.4557">
        <ele>297</ele>
        <time>2012-03-04T08:50:29.517Z</time>
      </trkpt>
      <trkpt lat="43.52168" lon="1.45578">
        <ele>298</ele>
        <time>2012-03-04T08:50:34.516Z</time>
      </trkpt>
      <trkpt lat="43.52162" lon="1.45587">
        <ele>300</ele>
        <time>2012-03-04T08:50:39.516Z</time>
      </trkpt>
      <trkpt lat="43.52131" lon="1.45629">
        <ele>304</ele>
        <time>2012-03-04T08:50:58.999Z</time>
      </trkpt>
      <trkpt lat="43.52124" lon="1.45639">
        <ele>305</ele>
        <time>2012-03-04T08:51:04.521Z</time>
      </trkpt>
      <trkpt lat="43.52118" lon="1.45649">
        <ele>305</ele>
        <time>2012-03-04T08:51:09.519Z</time>
      </trkpt>
      <trkpt lat="43.52111" lon="1.45659">
        <ele>306</ele>
        <time>2012-03-04T08:51:14.519Z</time>
      </trkpt>
      <trkpt lat="43.52104" lon="1.4567">
        <ele>307</ele>
        <time>2012-03-04T08:51:19.516Z</time>
      </trkpt>
      <trkpt lat="43.52097" lon="1.4568">
        <ele>308</ele>
        <time>2012-03-04T08:51:24.516Z</time>
      </trkpt>
      <trkpt lat="43.5209" lon="1.4569">
        <ele>308</ele>
        <time>2012-03-04T08:51:29.520Z</time>
      </trkpt>
      <trkpt lat="43.52082" lon="1.45704">
        <ele>309</ele>
        <time>2012-03-04T08:51:34.520Z</time>
      </trkpt>
      <trkpt lat="43.52076" lon="1.45717">
        <ele>309</ele>
        <time>2012-03-04T08:51:39.517Z</time>
      </trkpt>
      <trkpt lat="43.52069" lon="1.45728">
        <ele>309</ele>
        <time>2012-03-04T08:51:44.514Z</time>
      </trkpt>
      <trkpt lat="43.52063" lon="1.4574">
        <ele>310</ele>
        <time>2012-03-04T08:51:49.520Z</time>
      </trkpt>
      <trkpt lat="43.52057" lon="1.45752">
        <ele>311</ele>
        <time>2012-03-04T08:51:54.518Z</time>
      </trkpt>
      <trkpt lat="43.5205" lon="1.45763">
        <ele>311</ele>
        <time>2012-03-04T08:51:59.518Z</time>
      </trkpt>
      <trkpt lat="43.52044" lon="1.45775">
        <ele>311</ele>
        <time>2012-03-04T08:52:04.514Z</time>
      </trkpt>
      <trkpt lat="43.52038" lon="1.45787">
        <ele>310</ele>
        <time>2012-03-04T08:52:09.518Z</time>
      </trkpt>
      <trkpt lat="43.52032" lon="1.45797">
        <ele>311</ele>
        <time>2012-03-04T08:52:14.519Z</time>
      </trkpt>
      <trkpt lat="43.52026" lon="1.45809">
        <ele>312</ele>
        <time>2012-03-04T08:52:19.524Z</time>
      </trkpt>
      <trkpt lat="43.5202" lon="1.45819">
        <ele>313</ele>
        <time>2012-03-04T08:52:24.518Z</time>
      </trkpt>
      <trkpt lat="43.52013" lon="1.45829">
        <ele>313</ele>
        <time>2012-03-04T08:52:29.522Z</time>
      </trkpt>
      <trkpt lat="43.52006" lon="1.45839">
        <ele>314</ele>
        <time>2012-03-04T08:52:34.520Z</time>
      </trkpt>
      <trkpt lat="43.51998" lon="1.45849">
        <ele>314</ele>
        <time>2012-03-04T08:52:39.524Z</time>
      </trkpt>
      <trkpt lat="43.51991" lon="1.45858">
        <ele>315</ele>
        <time>2012-03-04T08:52:44.519Z</time>
      </trkpt>
      <trkpt lat="43.51977" lon="1.45879">
        <ele>315</ele>
        <time>2012-03-04T08:52:53.999Z</time>
      </trkpt>
      <trkpt lat="43.51969" lon="1.45888">
        <ele>316</ele>
        <time>2012-03-04T08:52:59.521Z</time>
      </trkpt>
      <trkpt lat="43.51961" lon="1.45899">
        <ele>316</ele>
        <time>2012-03-04T08:53:04.522Z</time>
      </trkpt>
      <trkpt lat="43.51953" lon="1.45911">
        <ele>317</ele>
        <time>2012-03-04T08:53:09.525Z</time>
      </trkpt>
      <trkpt lat="43.51946" lon="1.45923">
        <ele>318</ele>
        <time>2012-03-04T08:53:14.523Z</time>
      </trkpt>
      <trkpt lat="43.51941" lon="1.45936">
        <ele>319</ele>
        <time>2012-03-04T08:53:19.527Z</time>
      </trkpt>
      <trkpt lat="43.51937" lon="1.45952">
        <ele>319</ele>
        <time>2012-03-04T08:53:24.523Z</time>
      </trkpt>
      <trkpt lat="43.51933" lon="1.45969">
        <ele>320</ele>
        <time>2012-03-04T08:53:29.526Z</time>
      </trkpt>
      <trkpt lat="43.51929" lon="1.45986">
        <ele>320</ele>
        <time>2012-03-04T08:53:34.522Z</time>
      </trkpt>
      <trkpt lat="43.51925" lon="1.46003">
        <ele>320</ele>
        <time>2012-03-04T08:53:39.523Z</time>
      </trkpt>
      <trkpt lat="43.5192" lon="1.46021">
        <ele>320</ele>
        <time>2012-03-04T08:53:44.523Z</time>
      </trkpt>
      <trkpt lat="43.51915" lon="1.46038">
        <ele>320</ele>
        <time>2012-03-04T08:53:49.524Z</time>
      </trkpt>
      <trkpt lat="43.51911" lon="1.46055">
        <ele>321</ele>
        <time>2012-03-04T08:53:54.521Z</time>
      </trkpt>
      <trkpt lat="43.51909" lon="1.46075">
        <ele>320</ele>
        <time>2012-03-04T08:53:59.521Z</time>
      </trkpt>
      <trkpt lat="43.51871" lon="1.46084">
        <ele>320</ele>
        <time>2012-03-04T08:54:14.524Z</time>
      </trkpt>
      <trkpt lat="43.51825" lon="1.46068">
        <ele>320</ele>
        <time>2012-03-04T08:54:29.527Z</time>
      </trkpt>
      <trkpt lat="43.51789" lon="1.46051">
        <ele>320</ele>
        <time>2012-03-04T08:54:39.527Z</time>
      </trkpt>
      <trkpt lat="43.5177" lon="1.4604">
        <ele>319</ele>
        <time>2012-03-04T08:54:44.526Z</time>
      </trkpt>
      <trkpt lat="43.5175" lon="1.46028">
        <ele>318</ele>
        <time>2012-03-04T08:54:49.527Z</time>
      </trkpt>
      <trkpt lat="43.51727" lon="1.46013">
        <ele>318</ele>
        <time>2012-03-04T08:54:54.524Z</time>
      </trkpt>
      <trkpt lat="43.51699" lon="1.45995">
        <ele>316</ele>
        <time>2012-03-04T08:54:59.522Z</time>
      </trkpt>
      <trkpt lat="43.51671" lon="1.45977">
        <ele>315</ele>
        <time>2012-03-04T08:55:04.526Z</time>
      </trkpt>
      <trkpt lat="43.5165" lon="1.4598">
        <ele>316</ele>
        <time>2012-03-04T08:55:09.531Z</time>
      </trkpt>
      <trkpt lat="43.51641" lon="1.46004">
        <ele>317</ele>
        <time>2012-03-04T08:55:14.521Z</time>
      </trkpt>
      <trkpt lat="43.51634" lon="1.46026">
        <ele>317</ele>
        <time>2012-03-04T08:55:19.525Z</time>
      </trkpt>
      <trkpt lat="43.51628" lon="1.46047">
        <ele>318</ele>
        <time>2012-03-04T08:55:24.528Z</time>
      </trkpt>
      <trkpt lat="43.51623" lon="1.46065">
        <ele>319</ele>
        <time>2012-03-04T08:55:29.530Z</time>
      </trkpt>
      <trkpt lat="43.5162" lon="1.46081">
        <ele>320</ele>
        <time>2012-03-04T08:55:34.529Z</time>
      </trkpt>
      <trkpt lat="43.51617" lon="1.46096">
        <ele>320</ele>
        <time>2012-03-04T08:55:39.527Z</time>
      </trkpt>
      <trkpt lat="43.51612" lon="1.46111">
        <ele>321</ele>
        <time>2012-03-04T08:55:44.527Z</time>
      </trkpt>
      <trkpt lat="43.51608" lon="1.46125">
        <ele>322</ele>
        <time>2012-03-04T08:55:49.529Z</time>
      </trkpt>
      <trkpt lat="43.51603" lon="1.46139">
        <ele>322</ele>
        <time>2012-03-04T08:55:54.526Z</time>
      </trkpt>
      <trkpt lat="43.516" lon="1.46155">
        <ele>323</ele>
        <time>2012-03-04T08:55:59.524Z</time>
      </trkpt>
      <trkpt lat="43.51595" lon="1.46173">
        <ele>324</ele>
        <time>2012-03-04T08:56:04.528Z</time>
      </trkpt>
      <trkpt lat="43.51592" lon="1.46193">
        <ele>325</ele>
        <time>2012-03-04T08:56:09.530Z</time>
      </trkpt>
      <trkpt lat="43.51591" lon="1.46211">
        <ele>326</ele>
        <time>2012-03-04T08:56:14.527Z</time>
      </trkpt>
      <trkpt lat="43.51596" lon="1.46226">
        <ele>326</ele>
        <time>2012-03-04T08:56:19.531Z</time>
      </trkpt>
      <trkpt lat="43.51666" lon="1.46254">
        <ele>322</ele>
        <time>2012-03-04T08:56:38.999Z</time>
      </trkpt>
      <trkpt lat="43.51686" lon="1.46256">
        <ele>322</ele>
        <time>2012-03-04T08:56:44.532Z</time>
      </trkpt>
      <trkpt lat="43.51702" lon="1.46267">
        <ele>321</ele>
        <time>2012-03-04T08:56:49.528Z</time>
      </trkpt>
      <trkpt lat="43.51695" lon="1.46293">
        <ele>320</ele>
        <time>2012-03-04T08:56:54.528Z</time>
      </trkpt>
      <trkpt lat="43.5168" lon="1.46318">
        <ele>321</ele>
        <time>2012-03-04T08:56:59.525Z</time>
      </trkpt>
      <trkpt lat="43.51669" lon="1.46336">
        <ele>321</ele>
        <time>2012-03-04T08:57:04.549Z</time>
      </trkpt>
      <trkpt lat="43.51651" lon="1.4637">
        <ele>320</ele>
        <time>2012-03-04T08:57:09.557Z</time>
      </trkpt>
      <trkpt lat="43.51634" lon="1.46405">
        <ele>320</ele>
        <time>2012-03-04T08:57:14.531Z</time>
      </trkpt>
      <trkpt lat="43.5162" lon="1.46431">
        <ele>322</ele>
        <time>2012-03-04T08:57:19.529Z</time>
      </trkpt>
      <trkpt lat="43.51606" lon="1.46456">
        <ele>323</ele>
        <time>2012-03-04T08:57:24.533Z</time>
      </trkpt>
      <trkpt lat="43.51593" lon="1.46478">
        <ele>324</ele>
        <time>2012-03-04T08:57:29.532Z</time>
      </trkpt>
      <trkpt lat="43.51581" lon="1.46502">
        <ele>323</ele>
        <time>2012-03-04T08:57:34.528Z</time>
      </trkpt>
      <trkpt lat="43.51568" lon="1.46525">
        <ele>324</ele>
        <time>2012-03-04T08:57:39.530Z</time>
      </trkpt>
      <trkpt lat="43.51556" lon="1.4655">
        <ele>324</ele>
        <time>2012-03-04T08:57:44.530Z</time>
      </trkpt>
      <trkpt lat="43.51547" lon="1.46578">
        <ele>324</ele>
        <time>2012-03-04T08:57:49.532Z</time>
      </trkpt>
      <trkpt lat="43.51538" lon="1.46606">
        <ele>323</ele>
        <time>2012-03-04T08:57:54.531Z</time>
      </trkpt>
      <trkpt lat="43.51529" lon="1.46632">
        <ele>324</ele>
        <time>2012-03-04T08:57:59.529Z</time>
      </trkpt>
      <trkpt lat="43.5152" lon="1.46655">
        <ele>325</ele>
        <time>2012-03-04T08:58:04.530Z</time>
      </trkpt>
      <trkpt lat="43.51509" lon="1.46681">
        <ele>326</ele>
        <time>2012-03-04T08:58:09.557Z</time>
      </trkpt>
      <trkpt lat="43.51499" lon="1.46706">
        <ele>327</ele>
        <time>2012-03-04T08:58:14.530Z</time>
      </trkpt>
      <trkpt lat="43.51491" lon="1.46732">
        <ele>327</ele>
        <time>2012-03-04T08:58:19.530Z</time>
      </trkpt>
      <trkpt lat="43.51473" lon="1.46776">
        <ele>326</ele>
        <time>2012-03-04T08:58:28.534Z</time>
      </trkpt>
      <trkpt lat="43.51461" lon="1.46805">
        <ele>326</ele>
        <time>2012-03-04T08:58:33.555Z</time>
      </trkpt>
      <trkpt lat="43.51449" lon="1.4683">
        <ele>326</ele>
        <time>2012-03-04T08:58:38.532Z</time>
      </trkpt>
      <trkpt lat="43.51432" lon="1.46855">
        <ele>325</ele>
        <time>2012-03-04T08:58:43.529Z</time>
      </trkpt>
      <trkpt lat="43.51423" lon="1.46894">
        <ele>323</ele>
        <time>2012-03-04T08:58:48.530Z</time>
      </trkpt>
      <trkpt lat="43.51421" lon="1.46947">
        <ele>321</ele>
        <time>2012-03-04T08:58:53.533Z</time>
      </trkpt>
      <trkpt lat="43.51417" lon="1.46995">
        <ele>319</ele>
        <time>2012-03-04T08:58:58.532Z</time>
      </trkpt>
      <trkpt lat="43.51407" lon="1.47046">
        <ele>318</ele>
        <time>2012-03-04T08:59:03.532Z</time>
      </trkpt>
      <trkpt lat="43.51398" lon="1.47099">
        <ele>316</ele>
        <time>2012-03-04T08:59:08.529Z</time>
      </trkpt>
      <trkpt lat="43.51388" lon="1.47147">
        <ele>314</ele>
        <time>2012-03-04T08:59:13.534Z</time>
      </trkpt>
      <trkpt lat="43.51379" lon="1.47196">
        <ele>313</ele>
        <time>2012-03-04T08:59:18.528Z</time>
      </trkpt>
      <trkpt lat="43.51387" lon="1.47216">
        <ele>310</ele>
        <time>2012-03-04T08:59:23.531Z</time>
      </trkpt>
      <trkpt lat="43.51419" lon="1.47191">
        <ele>304</ele>
        <time>2012-03-04T08:59:41.533Z</time>
      </trkpt>
      <trkpt lat="43.51433" lon="1.47169">
        <ele>302</ele>
        <time>2012-03-04T08:59:46.532Z</time>
      </trkpt>
      <trkpt lat="43.51449" lon="1.47147">
        <ele>301</ele>
        <time>2012-03-04T08:59:51.535Z</time>
      </trkpt>
      <trkpt lat="43.51453" lon="1.47143">
        <ele>301</ele>
        <time>2012-03-04T08:59:56.536Z</time>
      </trkpt>
      <trkpt lat="43.51466" lon="1.4713">
        <ele>301</ele>
        <time>2012-03-04T09:00:01.644Z</time>
      </trkpt>
      <trkpt lat="43.51485" lon="1.47106">
        <ele>300</ele>
        <time>2012-03-04T09:00:06.533Z</time>
      </trkpt>
      <trkpt lat="43.515" lon="1.47087">
        <ele>299</ele>
        <time>2012-03-04T09:00:11.532Z</time>
      </trkpt>
      <trkpt lat="43.51514" lon="1.47079">
        <ele>297</ele>
        <time>2012-03-04T09:00:16.533Z</time>
      </trkpt>
      <trkpt lat="43.51523" lon="1.4709">
        <ele>294</ele>
        <time>2012-03-04T09:00:21.535Z</time>
      </trkpt>
      <trkpt lat="43.51534" lon="1.47101">
        <ele>291</ele>
        <time>2012-03-04T09:00:26.533Z</time>
      </trkpt>
      <trkpt lat="43.51552" lon="1.47087">
        <ele>290</ele>
        <time>2012-03-04T09:00:36.534Z</time>
      </trkpt>
      <trkpt lat="43.51559" lon="1.47083">
        <ele>292</ele>
        <time>2012-03-04T09:00:41.539Z</time>
      </trkpt>
      <trkpt lat="43.51565" lon="1.47077">
        <ele>292</ele>
        <time>2012-03-04T09:00:46.534Z</time>
      </trkpt>
      <trkpt lat="43.5157" lon="1.47069">
        <ele>293</ele>
        <time>2012-03-04T09:00:51.536Z</time>
      </trkpt>
      <trkpt lat="43.51575" lon="1.47062">
        <ele>294</ele>
        <time>2012-03-04T09:00:56.532Z</time>
      </trkpt>
      <trkpt lat="43.51583" lon="1.47061">
        <ele>293</ele>
        <time>2012-03-04T09:01:01.536Z</time>
      </trkpt>
      <trkpt lat="43.5159" lon="1.47071">
        <ele>293</ele>
        <time>2012-03-04T09:01:06.535Z</time>
      </trkpt>
      <trkpt lat="43.51597" lon="1.47086">
        <ele>293</ele>
        <time>2012-03-04T09:01:11.535Z</time>
      </trkpt>
      <trkpt lat="43.51616" lon="1.47087">
        <ele>294</ele>
        <time>2012-03-04T09:01:16.535Z</time>
      </trkpt>
      <trkpt lat="43.51628" lon="1.47084">
        <ele>295</ele>
        <time>2012-03-04T09:01:21.565Z</time>
      </trkpt>
      <trkpt lat="43.51643" lon="1.47068">
        <ele>295</ele>
        <time>2012-03-04T09:01:26.539Z</time>
      </trkpt>
      <trkpt lat="43.51664" lon="1.47038">
        <ele>294</ele>
        <time>2012-03-04T09:01:31.535Z</time>
      </trkpt>
      <trkpt lat="43.51685" lon="1.46999">
        <ele>294</ele>
        <time>2012-03-04T09:01:36.537Z</time>
      </trkpt>
      <trkpt lat="43.51707" lon="1.46976">
        <ele>294</ele>
        <time>2012-03-04T09:01:41.563Z</time>
      </trkpt>
      <trkpt lat="43.51722" lon="1.46967">
        <ele>294</ele>
        <time>2012-03-04T09:01:46.538Z</time>
      </trkpt>
      <trkpt lat="43.51734" lon="1.46957">
        <ele>293</ele>
        <time>2012-03-04T09:01:51.537Z</time>
      </trkpt>
      <trkpt lat="43.51776" lon="1.46927">
        <ele>291</ele>
        <time>2012-03-04T09:02:11.534Z</time>
      </trkpt>
      <trkpt lat="43.51783" lon="1.46916">
        <ele>288</ele>
        <time>2012-03-04T09:02:31.527Z</time>
      </trkpt>
      <trkpt lat="43.5179" lon="1.46912">
        <ele>288</ele>
        <time>2012-03-04T09:02:36.535Z</time>
      </trkpt>
      <trkpt lat="43.51798" lon="1.46909">
        <ele>288</ele>
        <time>2012-03-04T09:02:41.541Z</time>
      </trkpt>
      <trkpt lat="43.51807" lon="1.46906">
        <ele>286</ele>
        <time>2012-03-04T09:02:46.539Z</time>
      </trkpt>
      <trkpt lat="43.51819" lon="1.46896">
        <ele>286</ele>
        <time>2012-03-04T09:02:51.540Z</time>
      </trkpt>
      <trkpt lat="43.51831" lon="1.46889">
        <ele>286</ele>
        <time>2012-03-04T09:02:56.539Z</time>
      </trkpt>
      <trkpt lat="43.51843" lon="1.46878">
        <ele>287</ele>
        <time>2012-03-04T09:03:01.606Z</time>
      </trkpt>
      <trkpt lat="43.5186" lon="1.46857">
        <ele>288</ele>
        <time>2012-03-04T09:03:06.536Z</time>
      </trkpt>
      <trkpt lat="43.51881" lon="1.46837">
        <ele>286</ele>
        <time>2012-03-04T09:03:16.534Z</time>
      </trkpt>
      <trkpt lat="43.51899" lon="1.46831">
        <ele>288</ele>
        <time>2012-03-04T09:03:21.537Z</time>
      </trkpt>
      <trkpt lat="43.51912" lon="1.46819">
        <ele>288</ele>
        <time>2012-03-04T09:03:26.535Z</time>
      </trkpt>
      <trkpt lat="43.51937" lon="1.46802">
        <ele>287</ele>
        <time>2012-03-04T09:03:31.537Z</time>
      </trkpt>
      <trkpt lat="43.51961" lon="1.46779">
        <ele>286</ele>
        <time>2012-03-04T09:03:36.529Z</time>
      </trkpt>
      <trkpt lat="43.51977" lon="1.46773">
        <ele>284</ele>
        <time>2012-03-04T09:03:41.532Z</time>
      </trkpt>
      <trkpt lat="43.51986" lon="1.46771">
        <ele>283</ele>
        <time>2012-03-04T09:03:46.535Z</time>
      </trkpt>
      <trkpt lat="43.52003" lon="1.4677">
        <ele>282</ele>
        <time>2012-03-04T09:03:56.534Z</time>
      </trkpt>
      <trkpt lat="43.52012" lon="1.4676">
        <ele>281</ele>
        <time>2012-03-04T09:04:01.605Z</time>
      </trkpt>
      <trkpt lat="43.52028" lon="1.46746">
        <ele>280</ele>
        <time>2012-03-04T09:04:06.539Z</time>
      </trkpt>
      <trkpt lat="43.52048" lon="1.46739">
        <ele>279</ele>
        <time>2012-03-04T09:04:11.536Z</time>
      </trkpt>
      <trkpt lat="43.52064" lon="1.4673">
        <ele>278</ele>
        <time>2012-03-04T09:04:16.537Z</time>
      </trkpt>
      <trkpt lat="43.52078" lon="1.46717">
        <ele>277</ele>
        <time>2012-03-04T09:04:21.566Z</time>
      </trkpt>
      <trkpt lat="43.52101" lon="1.46713">
        <ele>278</ele>
        <time>2012-03-04T09:04:26.541Z</time>
      </trkpt>
      <trkpt lat="43.52114" lon="1.46694">
        <ele>278</ele>
        <time>2012-03-04T09:04:31.564Z</time>
      </trkpt>
      <trkpt lat="43.52132" lon="1.46681">
        <ele>277</ele>
        <time>2012-03-04T09:04:36.542Z</time>
      </trkpt>
      <trkpt lat="43.52148" lon="1.46671">
        <ele>276</ele>
        <time>2012-03-04T09:04:41.543Z</time>
      </trkpt>
      <trkpt lat="43.52174" lon="1.46656">
        <ele>275</ele>
        <time>2012-03-04T09:04:46.542Z</time>
      </trkpt>
      <trkpt lat="43.52206" lon="1.46637">
        <ele>275</ele>
        <time>2012-03-04T09:04:51.543Z</time>
      </trkpt>
      <trkpt lat="43.52228" lon="1.46622">
        <ele>276</ele>
        <time>2012-03-04T09:04:56.542Z</time>
      </trkpt>
      <trkpt lat="43.52243" lon="1.4661">
        <ele>277</ele>
        <time>2012-03-04T09:05:01.535Z</time>
      </trkpt>
      <trkpt lat="43.52257" lon="1.46594">
        <ele>278</ele>
        <time>2012-03-04T09:05:06.539Z</time>
      </trkpt>
      <trkpt lat="43.52274" lon="1.46581">
        <ele>279</ele>
        <time>2012-03-04T09:05:11.536Z</time>
      </trkpt>
      <trkpt lat="43.52295" lon="1.4657">
        <ele>278</ele>
        <time>2012-03-04T09:05:16.534Z</time>
      </trkpt>
      <trkpt lat="43.52332" lon="1.46553">
        <ele>278</ele>
        <time>2012-03-04T09:05:26.535Z</time>
      </trkpt>
      <trkpt lat="43.52352" lon="1.46522">
        <ele>272</ele>
        <time>2012-03-04T09:06:46.546Z</time>
      </trkpt>
      <trkpt lat="43.52363" lon="1.46521">
        <ele>273</ele>
        <time>2012-03-04T09:06:51.546Z</time>
      </trkpt>
      <trkpt lat="43.5243" lon="1.46502">
        <ele>280</ele>
        <time>2012-03-04T09:07:06.539Z</time>
      </trkpt>
      <trkpt lat="43.52459" lon="1.46469">
        <ele>279</ele>
        <time>2012-03-04T09:07:16.544Z</time>
      </trkpt>
      <trkpt lat="43.5248" lon="1.46462">
        <ele>278</ele>
        <time>2012-03-04T09:07:21.543Z</time>
      </trkpt>
      <trkpt lat="43.52503" lon="1.46457">
        <ele>276</ele>
        <time>2012-03-04T09:07:26.539Z</time>
      </trkpt>
      <trkpt lat="43.52522" lon="1.46456">
        <ele>274</ele>
        <time>2012-03-04T09:07:31.539Z</time>
      </trkpt>
      <trkpt lat="43.52541" lon="1.46452">
        <ele>272</ele>
        <time>2012-03-04T09:07:36.535Z</time>
      </trkpt>
      <trkpt lat="43.52563" lon="1.46459">
        <ele>272</ele>
        <time>2012-03-04T09:07:41.598Z</time>
      </trkpt>
      <trkpt lat="43.52583" lon="1.46456">
        <ele>271</ele>
        <time>2012-03-04T09:07:46.532Z</time>
      </trkpt>
      <trkpt lat="43.52596" lon="1.46459">
        <ele>270</ele>
        <time>2012-03-04T09:07:51.545Z</time>
      </trkpt>
      <trkpt lat="43.52618" lon="1.46459">
        <ele>269</ele>
        <time>2012-03-04T09:07:56.542Z</time>
      </trkpt>
      <trkpt lat="43.52644" lon="1.46467">
        <ele>267</ele>
        <time>2012-03-04T09:08:01.576Z</time>
      </trkpt>
      <trkpt lat="43.52663" lon="1.46494">
        <ele>265</ele>
        <time>2012-03-04T09:08:06.539Z</time>
      </trkpt>
      <trkpt lat="43.52674" lon="1.46512">
        <ele>265</ele>
        <time>2012-03-04T09:08:11.539Z</time>
      </trkpt>
      <trkpt lat="43.52682" lon="1.4652">
        <ele>265</ele>
        <time>2012-03-04T09:08:16.543Z</time>
      </trkpt>
      <trkpt lat="43.52691" lon="1.46526">
        <ele>265</ele>
        <time>2012-03-04T09:08:21.549Z</time>
      </trkpt>
      <trkpt lat="43.52704" lon="1.46533">
        <ele>265</ele>
        <time>2012-03-04T09:08:26.536Z</time>
      </trkpt>
      <trkpt lat="43.52719" lon="1.46533">
        <ele>265</ele>
        <time>2012-03-04T09:08:31.544Z</time>
      </trkpt>
      <trkpt lat="43.52732" lon="1.46532">
        <ele>264</ele>
        <time>2012-03-04T09:08:36.545Z</time>
      </trkpt>
      <trkpt lat="43.52751" lon="1.46531">
        <ele>263</ele>
        <time>2012-03-04T09:08:41.541Z</time>
      </trkpt>
      <trkpt lat="43.52775" lon="1.46521">
        <ele>262</ele>
        <time>2012-03-04T09:08:46.550Z</time>
      </trkpt>
      <trkpt lat="43.52815" lon="1.46499">
        <ele>261</ele>
        <time>2012-03-04T09:08:56.543Z</time>
      </trkpt>
      <trkpt lat="43.52836" lon="1.46487">
        <ele>259</ele>
        <time>2012-03-04T09:09:01.543Z</time>
      </trkpt>
      <trkpt lat="43.52856" lon="1.46486">
        <ele>259</ele>
        <time>2012-03-04T09:09:06.540Z</time>
      </trkpt>
      <trkpt lat="43.52865" lon="1.46475">
        <ele>257</ele>
        <time>2012-03-04T09:09:11.550Z</time>
      </trkpt>
      <trkpt lat="43.52871" lon="1.4647">
        <ele>248</ele>
        <time>2012-03-04T09:09:16.572Z</time>
      </trkpt>
      <trkpt lat="43.52884" lon="1.46443">
        <ele>244</ele>
        <time>2012-03-04T09:09:31.549Z</time>
      </trkpt>
      <trkpt lat="43.52896" lon="1.46435">
        <ele>243</ele>
        <time>2012-03-04T09:09:36.551Z</time>
      </trkpt>
      <trkpt lat="43.5291" lon="1.46432">
        <ele>242</ele>
        <time>2012-03-04T09:09:41.575Z</time>
      </trkpt>
      <trkpt lat="43.52925" lon="1.46432">
        <ele>243</ele>
        <time>2012-03-04T09:09:46.550Z</time>
      </trkpt>
      <trkpt lat="43.52936" lon="1.46433">
        <ele>243</ele>
        <time>2012-03-04T09:09:51.552Z</time>
      </trkpt>
      <trkpt lat="43.5295" lon="1.46431">
        <ele>242</ele>
        <time>2012-03-04T09:09:56.543Z</time>
      </trkpt>
      <trkpt lat="43.52961" lon="1.4643">
        <ele>241</ele>
        <time>2012-03-04T09:10:01.550Z</time>
      </trkpt>
      <trkpt lat="43.52992" lon="1.46423">
        <ele>242</ele>
        <time>2012-03-04T09:10:16.545Z</time>
      </trkpt>
      <trkpt lat="43.53005" lon="1.46427">
        <ele>242</ele>
        <time>2012-03-04T09:10:21.544Z</time>
      </trkpt>
      <trkpt lat="43.53078" lon="1.46423">
        <ele>239</ele>
        <time>2012-03-04T09:10:36.548Z</time>
      </trkpt>
      <trkpt lat="43.53139" lon="1.46414">
        <ele>235</ele>
        <time>2012-03-04T09:10:45.999Z</time>
      </trkpt>
      <trkpt lat="43.53169" lon="1.464">
        <ele>234</ele>
        <time>2012-03-04T09:10:51.547Z</time>
      </trkpt>
      <trkpt lat="43.53194" lon="1.46394">
        <ele>235</ele>
        <time>2012-03-04T09:10:56.552Z</time>
      </trkpt>
      <trkpt lat="43.53203" lon="1.46405">
        <ele>236</ele>
        <time>2012-03-04T09:11:01.551Z</time>
      </trkpt>
      <trkpt lat="43.53214" lon="1.46416">
        <ele>237</ele>
        <time>2012-03-04T09:11:06.548Z</time>
      </trkpt>
      <trkpt lat="43.5323" lon="1.46405">
        <ele>237</ele>
        <time>2012-03-04T09:11:11.550Z</time>
      </trkpt>
      <trkpt lat="43.53239" lon="1.4638">
        <ele>237</ele>
        <time>2012-03-04T09:11:16.552Z</time>
      </trkpt>
      <trkpt lat="43.53246" lon="1.46356">
        <ele>237</ele>
        <time>2012-03-04T09:11:21.555Z</time>
      </trkpt>
      <trkpt lat="43.53253" lon="1.4633">
        <ele>236</ele>
        <time>2012-03-04T09:11:26.549Z</time>
      </trkpt>
      <trkpt lat="43.53257" lon="1.46293">
        <ele>234</ele>
        <time>2012-03-04T09:11:31.548Z</time>
      </trkpt>
      <trkpt lat="43.53261" lon="1.46256">
        <ele>233</ele>
        <time>2012-03-04T09:11:36.547Z</time>
      </trkpt>
      <trkpt lat="43.53266" lon="1.46217">
        <ele>233</ele>
        <time>2012-03-04T09:11:41.547Z</time>
      </trkpt>
      <trkpt lat="43.53273" lon="1.46173">
        <ele>232</ele>
        <time>2012-03-04T09:11:46.545Z</time>
      </trkpt>
      <trkpt lat="43.53283" lon="1.46132">
        <ele>231</ele>
        <time>2012-03-04T09:11:51.553Z</time>
      </trkpt>
      <trkpt lat="43.53289" lon="1.46103">
        <ele>232</ele>
        <time>2012-03-04T09:11:56.553Z</time>
      </trkpt>
      <trkpt lat="43.53297" lon="1.4608">
        <ele>232</ele>
        <time>2012-03-04T09:12:01.548Z</time>
      </trkpt>
      <trkpt lat="43.53304" lon="1.46064">
        <ele>232</ele>
        <time>2012-03-04T09:12:06.552Z</time>
      </trkpt>
      <trkpt lat="43.53311" lon="1.46052">
        <ele>232</ele>
        <time>2012-03-04T09:12:16.577Z</time>
      </trkpt>
      <trkpt lat="43.53334" lon="1.46033">
        <ele>235</ele>
        <time>2012-03-04T09:12:35.999Z</time>
      </trkpt>
      <trkpt lat="43.53342" lon="1.46028">
        <ele>236</ele>
        <time>2012-03-04T09:12:41.554Z</time>
      </trkpt>
      <trkpt lat="43.5335" lon="1.46021">
        <ele>237</ele>
        <time>2012-03-04T09:12:46.552Z</time>
      </trkpt>
      <trkpt lat="43.53357" lon="1.46016">
        <ele>238</ele>
        <time>2012-03-04T09:12:51.555Z</time>
      </trkpt>
      <trkpt lat="43.53362" lon="1.46012">
        <ele>238</ele>
        <time>2012-03-04T09:12:55.582Z</time>
      </trkpt>
      <trkpt lat="43.53368" lon="1.46005">
        <ele>239</ele>
        <time>2012-03-04T09:13:01.105Z</time>
      </trkpt>
      <trkpt lat="43.53375" lon="1.46">
        <ele>239</ele>
        <time>2012-03-04T09:13:05.575Z</time>
      </trkpt>
      <trkpt lat="43.53379" lon="1.45996">
        <ele>239</ele>
        <time>2012-03-04T09:13:10.550Z</time>
      </trkpt>
      <trkpt lat="43.53385" lon="1.45991">
        <ele>240</ele>
        <time>2012-03-04T09:13:15.555Z</time>
      </trkpt>
      <trkpt lat="43.5339" lon="1.45987">
        <ele>240</ele>
        <time>2012-03-04T09:13:20.554Z</time>
      </trkpt>
      <trkpt lat="43.53395" lon="1.45982">
        <ele>240</ele>
        <time>2012-03-04T09:13:25.554Z</time>
      </trkpt>
      <trkpt lat="43.53402" lon="1.45976">
        <ele>240</ele>
        <time>2012-03-04T09:13:30.552Z</time>
      </trkpt>
      <trkpt lat="43.53425" lon="1.45959">
        <ele>244</ele>
        <time>2012-03-04T09:13:49.999Z</time>
      </trkpt>
      <trkpt lat="43.5343" lon="1.45955">
        <ele>245</ele>
        <time>2012-03-04T09:13:55.577Z</time>
      </trkpt>
      <trkpt lat="43.53436" lon="1.4595">
        <ele>246</ele>
        <time>2012-03-04T09:14:00.574Z</time>
      </trkpt>
      <trkpt lat="43.53441" lon="1.45943">
        <ele>247</ele>
        <time>2012-03-04T09:14:05.558Z</time>
      </trkpt>
      <trkpt lat="43.53447" lon="1.45939">
        <ele>247</ele>
        <time>2012-03-04T09:14:10.556Z</time>
      </trkpt>
      <trkpt lat="43.53452" lon="1.45934">
        <ele>249</ele>
        <time>2012-03-04T09:14:15.555Z</time>
      </trkpt>
      <trkpt lat="43.53458" lon="1.4593">
        <ele>250</ele>
        <time>2012-03-04T09:14:20.558Z</time>
      </trkpt>
      <trkpt lat="43.53463" lon="1.45925">
        <ele>251</ele>
        <time>2012-03-04T09:14:25.588Z</time>
      </trkpt>
      <trkpt lat="43.53468" lon="1.45921">
        <ele>252</ele>
        <time>2012-03-04T09:14:30.556Z</time>
      </trkpt>
      <trkpt lat="43.53473" lon="1.45917">
        <ele>253</ele>
        <time>2012-03-04T09:14:35.559Z</time>
      </trkpt>
      <trkpt lat="43.53478" lon="1.45913">
        <ele>254</ele>
        <time>2012-03-04T09:14:40.556Z</time>
      </trkpt>
      <trkpt lat="43.53483" lon="1.45909">
        <ele>255</ele>
        <time>2012-03-04T09:14:45.557Z</time>
      </trkpt>
      <trkpt lat="43.53489" lon="1.45906">
        <ele>256</ele>
        <time>2012-03-04T09:14:50.557Z</time>
      </trkpt>
      <trkpt lat="43.53494" lon="1.45903">
        <ele>257</ele>
        <time>2012-03-04T09:14:55.556Z</time>
      </trkpt>
      <trkpt lat="43.53499" lon="1.45899">
        <ele>258</ele>
        <time>2012-03-04T09:15:00.971Z</time>
      </trkpt>
      <trkpt lat="43.53505" lon="1.45896">
        <ele>260</ele>
        <time>2012-03-04T09:15:05.551Z</time>
      </trkpt>
      <trkpt lat="43.53511" lon="1.45893">
        <ele>261</ele>
        <time>2012-03-04T09:15:10.553Z</time>
      </trkpt>
      <trkpt lat="43.53523" lon="1.45888">
        <ele>262</ele>
        <time>2012-03-04T09:15:20.559Z</time>
      </trkpt>
      <trkpt lat="43.53529" lon="1.45886">
        <ele>263</ele>
        <time>2012-03-04T09:15:25.558Z</time>
      </trkpt>
      <trkpt lat="43.53535" lon="1.45885">
        <ele>264</ele>
        <time>2012-03-04T09:15:30.555Z</time>
      </trkpt>
      <trkpt lat="43.53541" lon="1.45883">
        <ele>265</ele>
        <time>2012-03-04T09:15:35.557Z</time>
      </trkpt>
      <trkpt lat="43.53549" lon="1.45881">
        <ele>264</ele>
        <time>2012-03-04T09:15:40.558Z</time>
      </trkpt>
      <trkpt lat="43.53555" lon="1.45878">
        <ele>265</ele>
        <time>2012-03-04T09:15:45.557Z</time>
      </trkpt>
      <trkpt lat="43.53561" lon="1.45876">
        <ele>266</ele>
        <time>2012-03-04T09:15:50.556Z</time>
      </trkpt>
      <trkpt lat="43.53567" lon="1.45872">
        <ele>267</ele>
        <time>2012-03-04T09:15:55.555Z</time>
      </trkpt>
      <trkpt lat="43.53574" lon="1.45869">
        <ele>268</ele>
        <time>2012-03-04T09:16:00.571Z</time>
      </trkpt>
      <trkpt lat="43.5358" lon="1.45866">
        <ele>268</ele>
        <time>2012-03-04T09:16:05.557Z</time>
      </trkpt>
      <trkpt lat="43.53586" lon="1.45863">
        <ele>270</ele>
        <time>2012-03-04T09:16:10.557Z</time>
      </trkpt>
      <trkpt lat="43.53592" lon="1.45858">
        <ele>271</ele>
        <time>2012-03-04T09:16:15.558Z</time>
      </trkpt>
      <trkpt lat="43.53599" lon="1.45854">
        <ele>271</ele>
        <time>2012-03-04T09:16:20.563Z</time>
      </trkpt>
      <trkpt lat="43.53605" lon="1.4585">
        <ele>272</ele>
        <time>2012-03-04T09:16:25.561Z</time>
      </trkpt>
      <trkpt lat="43.53611" lon="1.45845">
        <ele>273</ele>
        <time>2012-03-04T09:16:30.559Z</time>
      </trkpt>
      <trkpt lat="43.53618" lon="1.45839">
        <ele>273</ele>
        <time>2012-03-04T09:16:35.556Z</time>
      </trkpt>
      <trkpt lat="43.53625" lon="1.45833">
        <ele>273</ele>
        <time>2012-03-04T09:16:40.557Z</time>
      </trkpt>
      <trkpt lat="43.53632" lon="1.45829">
        <ele>274</ele>
        <time>2012-03-04T09:16:45.559Z</time>
      </trkpt>
      <trkpt lat="43.53654" lon="1.45816">
        <ele>278</ele>
        <time>2012-03-04T09:17:00.558Z</time>
      </trkpt>
      <trkpt lat="43.5367" lon="1.45808">
        <ele>280</ele>
        <time>2012-03-04T09:17:09.999Z</time>
      </trkpt>
      <trkpt lat="43.53677" lon="1.45803">
        <ele>280</ele>
        <time>2012-03-04T09:17:15.596Z</time>
      </trkpt>
      <trkpt lat="43.53684" lon="1.45799">
        <ele>281</ele>
        <time>2012-03-04T09:17:20.559Z</time>
      </trkpt>
      <trkpt lat="43.53692" lon="1.45793">
        <ele>281</ele>
        <time>2012-03-04T09:17:25.562Z</time>
      </trkpt>
      <trkpt lat="43.53701" lon="1.45789">
        <ele>282</ele>
        <time>2012-03-04T09:17:30.560Z</time>
      </trkpt>
      <trkpt lat="43.5371" lon="1.45783">
        <ele>283</ele>
        <time>2012-03-04T09:17:35.563Z</time>
      </trkpt>
      <trkpt lat="43.53719" lon="1.45776">
        <ele>285</ele>
        <time>2012-03-04T09:17:40.563Z</time>
      </trkpt>
      <trkpt lat="43.53728" lon="1.45771">
        <ele>286</ele>
        <time>2012-03-04T09:17:45.562Z</time>
      </trkpt>
      <trkpt lat="43.53738" lon="1.45763">
        <ele>287</ele>
        <time>2012-03-04T09:17:50.558Z</time>
      </trkpt>
      <trkpt lat="43.53746" lon="1.45756">
        <ele>288</ele>
        <time>2012-03-04T09:17:55.561Z</time>
      </trkpt>
      <trkpt lat="43.53754" lon="1.45751">
        <ele>288</ele>
        <time>2012-03-04T09:18:01.467Z</time>
      </trkpt>
      <trkpt lat="43.53762" lon="1.45741">
        <ele>289</ele>
        <time>2012-03-04T09:18:05.557Z</time>
      </trkpt>
      <trkpt lat="43.53771" lon="1.45734">
        <ele>289</ele>
        <time>2012-03-04T09:18:10.563Z</time>
      </trkpt>
      <trkpt lat="43.53781" lon="1.45724">
        <ele>289</ele>
        <time>2012-03-04T09:18:15.562Z</time>
      </trkpt>
      <trkpt lat="43.5379" lon="1.45715">
        <ele>289</ele>
        <time>2012-03-04T09:18:20.561Z</time>
      </trkpt>
      <trkpt lat="43.53799" lon="1.45705">
        <ele>290</ele>
        <time>2012-03-04T09:18:25.568Z</time>
      </trkpt>
      <trkpt lat="43.53808" lon="1.45695">
        <ele>290</ele>
        <time>2012-03-04T09:18:30.565Z</time>
      </trkpt>
      <trkpt lat="43.53819" lon="1.45682">
        <ele>292</ele>
        <time>2012-03-04T09:18:35.562Z</time>
      </trkpt>
      <trkpt lat="43.53829" lon="1.45671">
        <ele>294</ele>
        <time>2012-03-04T09:18:40.563Z</time>
      </trkpt>
      <trkpt lat="43.53839" lon="1.4566">
        <ele>294</ele>
        <time>2012-03-04T09:18:45.584Z</time>
      </trkpt>
      <trkpt lat="43.53849" lon="1.45648">
        <ele>294</ele>
        <time>2012-03-04T09:18:50.561Z</time>
      </trkpt>
      <trkpt lat="43.5386" lon="1.45639">
        <ele>294</ele>
        <time>2012-03-04T09:18:55.550Z</time>
      </trkpt>
      <trkpt lat="43.53876" lon="1.45623">
        <ele>295</ele>
        <time>2012-03-04T09:19:05.590Z</time>
      </trkpt>
      <trkpt lat="43.53883" lon="1.45616">
        <ele>296</ele>
        <time>2012-03-04T09:19:10.592Z</time>
      </trkpt>
      <trkpt lat="43.53892" lon="1.45609">
        <ele>297</ele>
        <time>2012-03-04T09:19:15.566Z</time>
      </trkpt>
      <trkpt lat="43.539" lon="1.45601">
        <ele>297</ele>
        <time>2012-03-04T09:19:20.564Z</time>
      </trkpt>
      <trkpt lat="43.53909" lon="1.45591">
        <ele>298</ele>
        <time>2012-03-04T09:19:25.588Z</time>
      </trkpt>
      <trkpt lat="43.53917" lon="1.45581">
        <ele>299</ele>
        <time>2012-03-04T09:19:30.589Z</time>
      </trkpt>
      <trkpt lat="43.53928" lon="1.4557">
        <ele>299</ele>
        <time>2012-03-04T09:19:35.563Z</time>
      </trkpt>
      <trkpt lat="43.53937" lon="1.45563">
        <ele>300</ele>
        <time>2012-03-04T09:19:40.565Z</time>
      </trkpt>
      <trkpt lat="43.53945" lon="1.45554">
        <ele>301</ele>
        <time>2012-03-04T09:19:45.585Z</time>
      </trkpt>
      <trkpt lat="43.53955" lon="1.45544">
        <ele>301</ele>
        <time>2012-03-04T09:19:50.566Z</time>
      </trkpt>
      <trkpt lat="43.53966" lon="1.45528">
        <ele>302</ele>
        <time>2012-03-04T09:19:55.564Z</time>
      </trkpt>
      <trkpt lat="43.53981" lon="1.45511">
        <ele>301</ele>
        <time>2012-03-04T09:20:01.450Z</time>
      </trkpt>
      <trkpt lat="43.53997" lon="1.45498">
        <ele>301</ele>
        <time>2012-03-04T09:20:05.562Z</time>
      </trkpt>
      <trkpt lat="43.5401" lon="1.45492">
        <ele>301</ele>
        <time>2012-03-04T09:20:10.567Z</time>
      </trkpt>
      <trkpt lat="43.54023" lon="1.4549">
        <ele>301</ele>
        <time>2012-03-04T09:20:15.566Z</time>
      </trkpt>
      <trkpt lat="43.54035" lon="1.45485">
        <ele>302</ele>
        <time>2012-03-04T09:20:20.567Z</time>
      </trkpt>
      <trkpt lat="43.54047" lon="1.4548">
        <ele>302</ele>
        <time>2012-03-04T09:20:25.564Z</time>
      </trkpt>
      <trkpt lat="43.54059" lon="1.45473">
        <ele>302</ele>
        <time>2012-03-04T09:20:30.564Z</time>
      </trkpt>
      <trkpt lat="43.54071" lon="1.45467">
        <ele>302</ele>
        <time>2012-03-04T09:20:35.563Z</time>
      </trkpt>
      <trkpt lat="43.54098" lon="1.45477">
        <ele>301</ele>
        <time>2012-03-04T09:20:45.590Z</time>
      </trkpt>
      <trkpt lat="43.54116" lon="1.4549">
        <ele>300</ele>
        <time>2012-03-04T09:20:50.566Z</time>
      </trkpt>
      <trkpt lat="43.54143" lon="1.45511">
        <ele>299</ele>
        <time>2012-03-04T09:20:55.565Z</time>
      </trkpt>
      <trkpt lat="43.54174" lon="1.45539">
        <ele>296</ele>
        <time>2012-03-04T09:21:00.562Z</time>
      </trkpt>
      <trkpt lat="43.54199" lon="1.45565">
        <ele>293</ele>
        <time>2012-03-04T09:21:05.567Z</time>
      </trkpt>
      <trkpt lat="43.54224" lon="1.45601">
        <ele>291</ele>
        <time>2012-03-04T09:21:10.565Z</time>
      </trkpt>
      <trkpt lat="43.54266" lon="1.45644">
        <ele>286</ele>
        <time>2012-03-04T09:21:15.567Z</time>
      </trkpt>
      <trkpt lat="43.54317" lon="1.45688">
        <ele>280</ele>
        <time>2012-03-04T09:21:20.564Z</time>
      </trkpt>
      <trkpt lat="43.54348" lon="1.457">
        <ele>278</ele>
        <time>2012-03-04T09:21:25.563Z</time>
      </trkpt>
      <trkpt lat="43.54366" lon="1.45672">
        <ele>279</ele>
        <time>2012-03-04T09:21:30.561Z</time>
      </trkpt>
      <trkpt lat="43.54406" lon="1.45595">
        <ele>280</ele>
        <time>2012-03-04T09:21:45.567Z</time>
      </trkpt>
      <trkpt lat="43.54418" lon="1.45573">
        <ele>281</ele>
        <time>2012-03-04T09:21:50.562Z</time>
      </trkpt>
      <trkpt lat="43.5443" lon="1.45552">
        <ele>281</ele>
        <time>2012-03-04T09:21:55.563Z</time>
      </trkpt>
      <trkpt lat="43.5444" lon="1.45536">
        <ele>281</ele>
        <time>2012-03-04T09:22:00.592Z</time>
      </trkpt>
      <trkpt lat="43.54452" lon="1.45522">
        <ele>280</ele>
        <time>2012-03-04T09:22:05.567Z</time>
      </trkpt>
      <trkpt lat="43.54464" lon="1.45506">
        <ele>281</ele>
        <time>2012-03-04T09:22:10.572Z</time>
      </trkpt>
      <trkpt lat="43.54506" lon="1.45438">
        <ele>281</ele>
        <time>2012-03-04T09:22:25.567Z</time>
      </trkpt>
      <trkpt lat="43.54517" lon="1.45406">
        <ele>281</ele>
        <time>2012-03-04T09:22:30.573Z</time>
      </trkpt>
      <trkpt lat="43.54525" lon="1.45376">
        <ele>280</ele>
        <time>2012-03-04T09:22:35.573Z</time>
      </trkpt>
      <trkpt lat="43.54554" lon="1.45325">
        <ele>281</ele>
        <time>2012-03-04T09:22:45.566Z</time>
      </trkpt>
      <trkpt lat="43.54568" lon="1.45297">
        <ele>281</ele>
        <time>2012-03-04T09:22:50.572Z</time>
      </trkpt>
      <trkpt lat="43.54583" lon="1.45271">
        <ele>280</ele>
        <time>2012-03-04T09:22:55.600Z</time>
      </trkpt>
      <trkpt lat="43.54583" lon="1.45271">
        <ele>280</ele>
        <time>2012-03-04T09:22:55.600Z</time>
      </trkpt>
      <trkpt lat="43.54613" lon="1.45228">
        <ele>279</ele>
        <time>2012-03-04T09:23:05.598Z</time>
      </trkpt>
      <trkpt lat="43.54628" lon="1.45203">
        <ele>278</ele>
        <time>2012-03-04T09:23:10.564Z</time>
      </trkpt>
      <trkpt lat="43.54644" lon="1.45178">
        <ele>278</ele>
        <time>2012-03-04T09:23:15.570Z</time>
      </trkpt>
      <trkpt lat="43.54659" lon="1.45153">
        <ele>277</ele>
        <time>2012-03-04T09:23:20.570Z</time>
      </trkpt>
      <trkpt lat="43.54675" lon="1.45127">
        <ele>277</ele>
        <time>2012-03-04T09:23:25.566Z</time>
      </trkpt>
      <trkpt lat="43.54691" lon="1.45101">
        <ele>277</ele>
        <time>2012-03-04T09:23:30.601Z</time>
      </trkpt>
      <trkpt lat="43.54709" lon="1.45073">
        <ele>277</ele>
        <time>2012-03-04T09:23:35.569Z</time>
      </trkpt>
      <trkpt lat="43.54725" lon="1.45045">
        <ele>276</ele>
        <time>2012-03-04T09:23:40.565Z</time>
      </trkpt>
      <trkpt lat="43.54742" lon="1.45017">
        <ele>275</ele>
        <time>2012-03-04T09:23:45.566Z</time>
      </trkpt>
      <trkpt lat="43.54749" lon="1.44975">
        <ele>274</ele>
        <time>2012-03-04T09:23:50.566Z</time>
      </trkpt>
      <trkpt lat="43.5474" lon="1.44955">
        <ele>274</ele>
        <time>2012-03-04T09:23:55.568Z</time>
      </trkpt>
      <trkpt lat="43.54735" lon="1.44934">
        <ele>272</ele>
        <time>2012-03-04T09:24:00.569Z</time>
      </trkpt>
      <trkpt lat="43.54734" lon="1.44903">
        <ele>272</ele>
        <time>2012-03-04T09:24:05.565Z</time>
      </trkpt>
      <trkpt lat="43.54739" lon="1.44882">
        <ele>272</ele>
        <time>2012-03-04T09:24:10.582Z</time>
      </trkpt>
      <trkpt lat="43.54755" lon="1.44843">
        <ele>271</ele>
        <time>2012-03-04T09:24:20.567Z</time>
      </trkpt>
      <trkpt lat="43.54763" lon="1.4482">
        <ele>271</ele>
        <time>2012-03-04T09:24:25.572Z</time>
      </trkpt>
      <trkpt lat="43.54773" lon="1.44793">
        <ele>271</ele>
        <time>2012-03-04T09:24:30.573Z</time>
      </trkpt>
      <trkpt lat="43.54783" lon="1.44764">
        <ele>269</ele>
        <time>2012-03-04T09:24:35.574Z</time>
      </trkpt>
      <trkpt lat="43.54793" lon="1.44738">
        <ele>269</ele>
        <time>2012-03-04T09:24:40.600Z</time>
      </trkpt>
      <trkpt lat="43.54803" lon="1.4471">
        <ele>268</ele>
        <time>2012-03-04T09:24:45.600Z</time>
      </trkpt>
      <trkpt lat="43.54813" lon="1.44687">
        <ele>267</ele>
        <time>2012-03-04T09:24:50.573Z</time>
      </trkpt>
      <trkpt lat="43.54824" lon="1.4466">
        <ele>267</ele>
        <time>2012-03-04T09:24:55.568Z</time>
      </trkpt>
      <trkpt lat="43.54842" lon="1.44591">
        <ele>265</ele>
        <time>2012-03-04T09:25:05.563Z</time>
      </trkpt>
      <trkpt lat="43.54845" lon="1.44562">
        <ele>263</ele>
        <time>2012-03-04T09:25:10.564Z</time>
      </trkpt>
      <trkpt lat="43.54853" lon="1.4453">
        <ele>262</ele>
        <time>2012-03-04T09:25:15.568Z</time>
      </trkpt>
      <trkpt lat="43.54862" lon="1.44492">
        <ele>261</ele>
        <time>2012-03-04T09:25:20.568Z</time>
      </trkpt>
      <trkpt lat="43.54879" lon="1.44457">
        <ele>260</ele>
        <time>2012-03-04T09:25:25.603Z</time>
      </trkpt>
      <trkpt lat="43.54898" lon="1.44429">
        <ele>258</ele>
        <time>2012-03-04T09:25:30.564Z</time>
      </trkpt>
      <trkpt lat="43.54922" lon="1.44425">
        <ele>255</ele>
        <time>2012-03-04T09:25:35.561Z</time>
      </trkpt>
      <trkpt lat="43.54936" lon="1.44403">
        <ele>254</ele>
        <time>2012-03-04T09:25:40.564Z</time>
      </trkpt>
      <trkpt lat="43.54941" lon="1.44367">
        <ele>252</ele>
        <time>2012-03-04T09:25:45.574Z</time>
      </trkpt>
      <trkpt lat="43.54931" lon="1.44336">
        <ele>250</ele>
        <time>2012-03-04T09:25:50.560Z</time>
      </trkpt>
      <trkpt lat="43.54935" lon="1.44308">
        <ele>246</ele>
        <time>2012-03-04T09:26:05.566Z</time>
      </trkpt>
      <trkpt lat="43.54934" lon="1.44247">
        <ele>243</ele>
        <time>2012-03-04T09:26:15.565Z</time>
      </trkpt>
      <trkpt lat="43.54933" lon="1.44234">
        <ele>241</ele>
        <time>2012-03-04T09:26:20.571Z</time>
      </trkpt>
      <trkpt lat="43.54932" lon="1.44208">
        <ele>240</ele>
        <time>2012-03-04T09:26:25.576Z</time>
      </trkpt>
      <trkpt lat="43.54932" lon="1.44167">
        <ele>237</ele>
        <time>2012-03-04T09:26:30.564Z</time>
      </trkpt>
      <trkpt lat="43.54924" lon="1.44129">
        <ele>232</ele>
        <time>2012-03-04T09:26:35.566Z</time>
      </trkpt>
      <trkpt lat="43.54923" lon="1.44104">
        <ele>226</ele>
        <time>2012-03-04T09:26:40.569Z</time>
      </trkpt>
      <trkpt lat="43.54921" lon="1.44096">
        <ele>220</ele>
        <time>2012-03-04T09:26:45.571Z</time>
      </trkpt>
      <trkpt lat="43.54921" lon="1.44095">
        <ele>220</ele>
        <time>2012-03-04T09:26:50.562Z</time>
      </trkpt>
      <trkpt lat="43.54915" lon="1.44096">
        <ele>214</ele>
        <time>2012-03-04T09:26:55.562Z</time>
      </trkpt>
      <trkpt lat="43.54915" lon="1.44098">
        <ele>214</ele>
        <time>2012-03-04T09:27:20.570Z</time>
      </trkpt>
      <trkpt lat="43.54928" lon="1.44086">
        <ele>208</ele>
        <time>2012-03-04T09:27:54.999Z</time>
      </trkpt>
      <trkpt lat="43.54927" lon="1.44091">
        <ele>208</ele>
        <time>2012-03-04T09:28:05.564Z</time>
      </trkpt>
      <trkpt lat="43.54927" lon="1.44096">
        <ele>209</ele>
        <time>2012-03-04T09:28:10.566Z</time>
      </trkpt>
      <trkpt lat="43.54927" lon="1.44103">
        <ele>211</ele>
        <time>2012-03-04T09:28:15.572Z</time>
      </trkpt>
      <trkpt lat="43.54926" lon="1.44111">
        <ele>212</ele>
        <time>2012-03-04T09:28:20.571Z</time>
      </trkpt>
      <trkpt lat="43.54925" lon="1.44119">
        <ele>213</ele>
        <time>2012-03-04T09:28:25.571Z</time>
      </trkpt>
      <trkpt lat="43.54924" lon="1.44126">
        <ele>214</ele>
        <time>2012-03-04T09:28:30.570Z</time>
      </trkpt>
      <trkpt lat="43.54925" lon="1.44135">
        <ele>214</ele>
        <time>2012-03-04T09:28:35.573Z</time>
      </trkpt>
      <trkpt lat="43.54928" lon="1.44143">
        <ele>215</ele>
        <time>2012-03-04T09:28:40.571Z</time>
      </trkpt>
      <trkpt lat="43.54931" lon="1.4415">
        <ele>216</ele>
        <time>2012-03-04T09:28:45.573Z</time>
      </trkpt>
      <trkpt lat="43.54949" lon="1.44177">
        <ele>220</ele>
        <time>2012-03-04T09:29:20.569Z</time>
      </trkpt>
      <trkpt lat="43.54953" lon="1.44183">
        <ele>222</ele>
        <time>2012-03-04T09:29:40.572Z</time>
      </trkpt>
      <trkpt lat="43.54957" lon="1.4419">
        <ele>222</ele>
        <time>2012-03-04T09:29:45.570Z</time>
      </trkpt>
      <trkpt lat="43.5496" lon="1.44196">
        <ele>223</ele>
        <time>2012-03-04T09:29:50.571Z</time>
      </trkpt>
      <trkpt lat="43.54965" lon="1.44204">
        <ele>221</ele>
        <time>2012-03-04T09:29:55.571Z</time>
      </trkpt>
      <trkpt lat="43.54968" lon="1.4421">
        <ele>222</ele>
        <time>2012-03-04T09:30:00.887Z</time>
      </trkpt>
      <trkpt lat="43.54972" lon="1.44216">
        <ele>223</ele>
        <time>2012-03-04T09:30:05.567Z</time>
      </trkpt>
      <trkpt lat="43.54986" lon="1.44243">
        <ele>228</ele>
        <time>2012-03-04T09:30:24.999Z</time>
      </trkpt>
      <trkpt lat="43.54987" lon="1.44253">
        <ele>228</ele>
        <time>2012-03-04T09:30:30.574Z</time>
      </trkpt>
      <trkpt lat="43.54992" lon="1.44257">
        <ele>227</ele>
        <time>2012-03-04T09:30:35.577Z</time>
      </trkpt>
      <trkpt lat="43.54996" lon="1.44262">
        <ele>228</ele>
        <time>2012-03-04T09:30:40.576Z</time>
      </trkpt>
      <trkpt lat="43.54998" lon="1.44269">
        <ele>229</ele>
        <time>2012-03-04T09:30:45.578Z</time>
      </trkpt>
      <trkpt lat="43.55002" lon="1.44282">
        <ele>235</ele>
        <time>2012-03-04T09:31:05.574Z</time>
      </trkpt>
      <trkpt lat="43.55006" lon="1.44288">
        <ele>236</ele>
        <time>2012-03-04T09:31:10.574Z</time>
      </trkpt>
      <trkpt lat="43.55009" lon="1.44296">
        <ele>238</ele>
        <time>2012-03-04T09:31:15.572Z</time>
      </trkpt>
      <trkpt lat="43.55012" lon="1.44301">
        <ele>237</ele>
        <time>2012-03-04T09:31:20.570Z</time>
      </trkpt>
      <trkpt lat="43.55016" lon="1.44308">
        <ele>237</ele>
        <time>2012-03-04T09:31:25.570Z</time>
      </trkpt>
      <trkpt lat="43.55019" lon="1.44316">
        <ele>238</ele>
        <time>2012-03-04T09:31:30.573Z</time>
      </trkpt>
      <trkpt lat="43.55022" lon="1.44321">
        <ele>238</ele>
        <time>2012-03-04T09:31:35.570Z</time>
      </trkpt>
      <trkpt lat="43.55024" lon="1.4433">
        <ele>239</ele>
        <time>2012-03-04T09:31:40.576Z</time>
      </trkpt>
      <trkpt lat="43.55024" lon="1.44339">
        <ele>239</ele>
        <time>2012-03-04T09:31:45.573Z</time>
      </trkpt>
      <trkpt lat="43.55024" lon="1.44347">
        <ele>240</ele>
        <time>2012-03-04T09:31:50.574Z</time>
      </trkpt>
      <trkpt lat="43.55032" lon="1.44375">
        <ele>242</ele>
        <time>2012-03-04T09:32:05.580Z</time>
      </trkpt>
      <trkpt lat="43.55033" lon="1.44384">
        <ele>242</ele>
        <time>2012-03-04T09:32:10.578Z</time>
      </trkpt>
      <trkpt lat="43.55035" lon="1.44395">
        <ele>242</ele>
        <time>2012-03-04T09:32:15.576Z</time>
      </trkpt>
      <trkpt lat="43.55036" lon="1.44405">
        <ele>243</ele>
        <time>2012-03-04T09:32:20.574Z</time>
      </trkpt>
      <trkpt lat="43.55037" lon="1.44416">
        <ele>243</ele>
        <time>2012-03-04T09:32:25.569Z</time>
      </trkpt>
      <trkpt lat="43.55038" lon="1.44426">
        <ele>243</ele>
        <time>2012-03-04T09:32:30.568Z</time>
      </trkpt>
      <trkpt lat="43.55037" lon="1.44437">
        <ele>242</ele>
        <time>2012-03-04T09:32:35.567Z</time>
      </trkpt>
      <trkpt lat="43.55038" lon="1.44446">
        <ele>242</ele>
        <time>2012-03-04T09:32:40.572Z</time>
      </trkpt>
      <trkpt lat="43.55039" lon="1.44453">
        <ele>244</ele>
        <time>2012-03-04T09:32:45.571Z</time>
      </trkpt>
      <trkpt lat="43.5504" lon="1.44461">
        <ele>244</ele>
        <time>2012-03-04T09:32:50.571Z</time>
      </trkpt>
      <trkpt lat="43.55041" lon="1.4447">
        <ele>244</ele>
        <time>2012-03-04T09:32:55.574Z</time>
      </trkpt>
      <trkpt lat="43.55041" lon="1.44481">
        <ele>245</ele>
        <time>2012-03-04T09:33:01.016Z</time>
      </trkpt>
      <trkpt lat="43.55042" lon="1.4449">
        <ele>246</ele>
        <time>2012-03-04T09:33:05.578Z</time>
      </trkpt>
      <trkpt lat="43.55043" lon="1.44498">
        <ele>247</ele>
        <time>2012-03-04T09:33:10.577Z</time>
      </trkpt>
      <trkpt lat="43.55043" lon="1.44507">
        <ele>248</ele>
        <time>2012-03-04T09:33:15.627Z</time>
      </trkpt>
      <trkpt lat="43.55044" lon="1.44516">
        <ele>250</ele>
        <time>2012-03-04T09:33:20.577Z</time>
      </trkpt>
      <trkpt lat="43.55046" lon="1.44534">
        <ele>252</ele>
        <time>2012-03-04T09:33:30.576Z</time>
      </trkpt>
      <trkpt lat="43.55046" lon="1.44544">
        <ele>253</ele>
        <time>2012-03-04T09:33:35.578Z</time>
      </trkpt>
      <trkpt lat="43.55044" lon="1.44553">
        <ele>254</ele>
        <time>2012-03-04T09:33:40.575Z</time>
      </trkpt>
      <trkpt lat="43.55044" lon="1.44563">
        <ele>254</ele>
        <time>2012-03-04T09:33:45.582Z</time>
      </trkpt>
      <trkpt lat="43.55045" lon="1.44573">
        <ele>255</ele>
        <time>2012-03-04T09:33:50.585Z</time>
      </trkpt>
      <trkpt lat="43.55044" lon="1.44586">
        <ele>260</ele>
        <time>2012-03-04T09:34:00.583Z</time>
      </trkpt>
      <trkpt lat="43.55044" lon="1.44595">
        <ele>262</ele>
        <time>2012-03-04T09:34:05.585Z</time>
      </trkpt>
      <trkpt lat="43.55044" lon="1.44603">
        <ele>263</ele>
        <time>2012-03-04T09:34:10.585Z</time>
      </trkpt>
      <trkpt lat="43.55044" lon="1.44613">
        <ele>264</ele>
        <time>2012-03-04T09:34:15.583Z</time>
      </trkpt>
      <trkpt lat="43.55043" lon="1.44622">
        <ele>264</ele>
        <time>2012-03-04T09:34:20.585Z</time>
      </trkpt>
      <trkpt lat="43.55042" lon="1.4463">
        <ele>265</ele>
        <time>2012-03-04T09:34:25.585Z</time>
      </trkpt>
      <trkpt lat="43.55042" lon="1.4464">
        <ele>266</ele>
        <time>2012-03-04T09:34:30.583Z</time>
      </trkpt>
      <trkpt lat="43.55042" lon="1.44647">
        <ele>267</ele>
        <time>2012-03-04T09:34:35.583Z</time>
      </trkpt>
      <trkpt lat="43.55042" lon="1.44655">
        <ele>268</ele>
        <time>2012-03-04T09:34:40.578Z</time>
      </trkpt>
      <trkpt lat="43.55041" lon="1.44685">
        <ele>270</ele>
        <time>2012-03-04T09:34:54.999Z</time>
      </trkpt>
      <trkpt lat="43.55041" lon="1.44685">
        <ele>270</ele>
        <time>2012-03-04T09:34:55.585Z</time>
      </trkpt>
      <trkpt lat="43.55041" lon="1.44701">
        <ele>272</ele>
        <time>2012-03-04T09:35:05.578Z</time>
      </trkpt>
      <trkpt lat="43.55041" lon="1.44711">
        <ele>273</ele>
        <time>2012-03-04T09:35:10.578Z</time>
      </trkpt>
      <trkpt lat="43.55045" lon="1.44717">
        <ele>272</ele>
        <time>2012-03-04T09:35:15.578Z</time>
      </trkpt>
      <trkpt lat="43.5505" lon="1.44707">
        <ele>273</ele>
        <time>2012-03-04T09:35:30.578Z</time>
      </trkpt>
      <trkpt lat="43.55054" lon="1.44695">
        <ele>273</ele>
        <time>2012-03-04T09:35:35.578Z</time>
      </trkpt>
      <trkpt lat="43.55056" lon="1.44684">
        <ele>273</ele>
        <time>2012-03-04T09:35:40.578Z</time>
      </trkpt>
      <trkpt lat="43.55061" lon="1.4467">
        <ele>273</ele>
        <time>2012-03-04T09:35:45.589Z</time>
      </trkpt>
      <trkpt lat="43.55068" lon="1.44662">
        <ele>272</ele>
        <time>2012-03-04T09:35:50.575Z</time>
      </trkpt>
      <trkpt lat="43.55073" lon="1.4465">
        <ele>271</ele>
        <time>2012-03-04T09:35:55.579Z</time>
      </trkpt>
      <trkpt lat="43.55075" lon="1.44637">
        <ele>271</ele>
        <time>2012-03-04T09:36:00.578Z</time>
      </trkpt>
      <trkpt lat="43.55078" lon="1.44622">
        <ele>271</ele>
        <time>2012-03-04T09:36:05.580Z</time>
      </trkpt>
      <trkpt lat="43.55088" lon="1.44587">
        <ele>271</ele>
        <time>2012-03-04T09:36:15.589Z</time>
      </trkpt>
      <trkpt lat="43.55093" lon="1.44568">
        <ele>270</ele>
        <time>2012-03-04T09:36:20.581Z</time>
      </trkpt>
      <trkpt lat="43.55099" lon="1.44545">
        <ele>270</ele>
        <time>2012-03-04T09:36:25.581Z</time>
      </trkpt>
      <trkpt lat="43.55106" lon="1.44516">
        <ele>269</ele>
        <time>2012-03-04T09:36:30.581Z</time>
      </trkpt>
      <trkpt lat="43.55113" lon="1.44486">
        <ele>268</ele>
        <time>2012-03-04T09:36:35.581Z</time>
      </trkpt>
      <trkpt lat="43.55122" lon="1.44452">
        <ele>267</ele>
        <time>2012-03-04T09:36:40.581Z</time>
      </trkpt>
      <trkpt lat="43.5513" lon="1.44417">
        <ele>266</ele>
        <time>2012-03-04T09:36:45.586Z</time>
      </trkpt>
      <trkpt lat="43.55137" lon="1.44383">
        <ele>266</ele>
        <time>2012-03-04T09:36:50.581Z</time>
      </trkpt>
      <trkpt lat="43.55125" lon="1.44356">
        <ele>265</ele>
        <time>2012-03-04T09:36:55.579Z</time>
      </trkpt>
      <trkpt lat="43.55109" lon="1.44307">
        <ele>264</ele>
        <time>2012-03-04T09:37:05.579Z</time>
      </trkpt>
      <trkpt lat="43.55104" lon="1.44279">
        <ele>263</ele>
        <time>2012-03-04T09:37:10.585Z</time>
      </trkpt>
      <trkpt lat="43.55098" lon="1.44253">
        <ele>264</ele>
        <time>2012-03-04T09:37:15.579Z</time>
      </trkpt>
      <trkpt lat="43.551" lon="1.44241">
        <ele>264</ele>
        <time>2012-03-04T09:37:20.579Z</time>
      </trkpt>
      <trkpt lat="43.5511" lon="1.44239">
        <ele>264</ele>
        <time>2012-03-04T09:37:25.583Z</time>
      </trkpt>
      <trkpt lat="43.55117" lon="1.44241">
        <ele>265</ele>
        <time>2012-03-04T09:37:30.579Z</time>
      </trkpt>
      <trkpt lat="43.55119" lon="1.44242">
        <ele>267</ele>
        <time>2012-03-04T09:38:35.582Z</time>
      </trkpt>
      <trkpt lat="43.55117" lon="1.44235">
        <ele>267</ele>
        <time>2012-03-04T09:38:40.582Z</time>
      </trkpt>
      <trkpt lat="43.55125" lon="1.44242">
        <ele>267</ele>
        <time>2012-03-04T09:38:50.581Z</time>
      </trkpt>
      <trkpt lat="43.55154" lon="1.44266">
        <ele>265</ele>
        <time>2012-03-04T09:38:55.584Z</time>
      </trkpt>
      <trkpt lat="43.55162" lon="1.44276">
        <ele>264</ele>
        <time>2012-03-04T09:39:01.008Z</time>
      </trkpt>
      <trkpt lat="43.55182" lon="1.44304">
        <ele>262</ele>
        <time>2012-03-04T09:39:05.585Z</time>
      </trkpt>
      <trkpt lat="43.55219" lon="1.443">
        <ele>260</ele>
        <time>2012-03-04T09:39:10.583Z</time>
      </trkpt>
      <trkpt lat="43.55239" lon="1.44296">
        <ele>259</ele>
        <time>2012-03-04T09:39:15.584Z</time>
      </trkpt>
      <trkpt lat="43.55264" lon="1.44284">
        <ele>259</ele>
        <time>2012-03-04T09:39:30.607Z</time>
      </trkpt>
      <trkpt lat="43.55274" lon="1.44289">
        <ele>259</ele>
        <time>2012-03-04T09:39:35.593Z</time>
      </trkpt>
      <trkpt lat="43.55287" lon="1.44291">
        <ele>259</ele>
        <time>2012-03-04T09:39:40.599Z</time>
      </trkpt>
      <trkpt lat="43.553" lon="1.44286">
        <ele>259</ele>
        <time>2012-03-04T09:39:45.619Z</time>
      </trkpt>
      <trkpt lat="43.55326" lon="1.44289">
        <ele>260</ele>
        <time>2012-03-04T09:39:55.595Z</time>
      </trkpt>
      <trkpt lat="43.55337" lon="1.44296">
        <ele>261</ele>
        <time>2012-03-04T09:40:00.613Z</time>
      </trkpt>
      <trkpt lat="43.55349" lon="1.44301">
        <ele>261</ele>
        <time>2012-03-04T09:40:05.598Z</time>
      </trkpt>
      <trkpt lat="43.55362" lon="1.44304">
        <ele>262</ele>
        <time>2012-03-04T09:40:10.601Z</time>
      </trkpt>
      <trkpt lat="43.55376" lon="1.44305">
        <ele>261</ele>
        <time>2012-03-04T09:40:15.631Z</time>
      </trkpt>
      <trkpt lat="43.55397" lon="1.44304">
        <ele>261</ele>
        <time>2012-03-04T09:40:20.596Z</time>
      </trkpt>
      <trkpt lat="43.55421" lon="1.44318">
        <ele>259</ele>
        <time>2012-03-04T09:40:25.598Z</time>
      </trkpt>
      <trkpt lat="43.55463" lon="1.44351">
        <ele>258</ele>
        <time>2012-03-04T09:40:30.594Z</time>
      </trkpt>
      <trkpt lat="43.55497" lon="1.44373">
        <ele>259</ele>
        <time>2012-03-04T09:40:35.599Z</time>
      </trkpt>
      <trkpt lat="43.55515" lon="1.44385">
        <ele>260</ele>
        <time>2012-03-04T09:40:40.596Z</time>
      </trkpt>
      <trkpt lat="43.55521" lon="1.4439">
        <ele>262</ele>
        <time>2012-03-04T09:40:45.632Z</time>
      </trkpt>
      <trkpt lat="43.55527" lon="1.44393">
        <ele>263</ele>
        <time>2012-03-04T09:40:50.603Z</time>
      </trkpt>
      <trkpt lat="43.55532" lon="1.44396">
        <ele>264</ele>
        <time>2012-03-04T09:40:55.596Z</time>
      </trkpt>
      <trkpt lat="43.55537" lon="1.44399">
        <ele>265</ele>
        <time>2012-03-04T09:41:01.201Z</time>
      </trkpt>
      <trkpt lat="43.55543" lon="1.44403">
        <ele>265</ele>
        <time>2012-03-04T09:41:05.593Z</time>
      </trkpt>
      <trkpt lat="43.55548" lon="1.44406">
        <ele>266</ele>
        <time>2012-03-04T09:41:10.596Z</time>
      </trkpt>
      <trkpt lat="43.55553" lon="1.4441">
        <ele>268</ele>
        <time>2012-03-04T09:41:15.598Z</time>
      </trkpt>
      <trkpt lat="43.55558" lon="1.44414">
        <ele>269</ele>
        <time>2012-03-04T09:41:20.595Z</time>
      </trkpt>
      <trkpt lat="43.55564" lon="1.44417">
        <ele>270</ele>
        <time>2012-03-04T09:41:25.595Z</time>
      </trkpt>
      <trkpt lat="43.5557" lon="1.44421">
        <ele>271</ele>
        <time>2012-03-04T09:41:30.593Z</time>
      </trkpt>
      <trkpt lat="43.55588" lon="1.44433">
        <ele>273</ele>
        <time>2012-03-04T09:41:45.596Z</time>
      </trkpt>
      <trkpt lat="43.55594" lon="1.44437">
        <ele>273</ele>
        <time>2012-03-04T09:41:50.594Z</time>
      </trkpt>
      <trkpt lat="43.55612" lon="1.4445">
        <ele>275</ele>
        <time>2012-03-04T09:42:05.598Z</time>
      </trkpt>
      <trkpt lat="43.55624" lon="1.44458">
        <ele>276</ele>
        <time>2012-03-04T09:42:15.599Z</time>
      </trkpt>
      <trkpt lat="43.55629" lon="1.44462">
        <ele>276</ele>
        <time>2012-03-04T09:42:20.595Z</time>
      </trkpt>
      <trkpt lat="43.55634" lon="1.44465">
        <ele>277</ele>
        <time>2012-03-04T09:42:25.597Z</time>
      </trkpt>
      <trkpt lat="43.55639" lon="1.44469">
        <ele>277</ele>
        <time>2012-03-04T09:42:30.595Z</time>
      </trkpt>
      <trkpt lat="43.55644" lon="1.44473">
        <ele>278</ele>
        <time>2012-03-04T09:42:35.597Z</time>
      </trkpt>
      <trkpt lat="43.5565" lon="1.44477">
        <ele>279</ele>
        <time>2012-03-04T09:42:40.597Z</time>
      </trkpt>
      <trkpt lat="43.55656" lon="1.4448">
        <ele>280</ele>
        <time>2012-03-04T09:42:45.601Z</time>
      </trkpt>
      <trkpt lat="43.55663" lon="1.44483">
        <ele>281</ele>
        <time>2012-03-04T09:42:50.599Z</time>
      </trkpt>
      <trkpt lat="43.55668" lon="1.44486">
        <ele>283</ele>
        <time>2012-03-04T09:42:55.598Z</time>
      </trkpt>
      <trkpt lat="43.55675" lon="1.44485">
        <ele>285</ele>
        <time>2012-03-04T09:43:01.236Z</time>
      </trkpt>
      <trkpt lat="43.55681" lon="1.44492">
        <ele>287</ele>
        <time>2012-03-04T09:43:05.597Z</time>
      </trkpt>
      <trkpt lat="43.55684" lon="1.44498">
        <ele>288</ele>
        <time>2012-03-04T09:43:10.597Z</time>
      </trkpt>
      <trkpt lat="43.55687" lon="1.44503">
        <ele>289</ele>
        <time>2012-03-04T09:43:15.598Z</time>
      </trkpt>
      <trkpt lat="43.55691" lon="1.44507">
        <ele>291</ele>
        <time>2012-03-04T09:43:20.599Z</time>
      </trkpt>
      <trkpt lat="43.55694" lon="1.44512">
        <ele>291</ele>
        <time>2012-03-04T09:43:25.597Z</time>
      </trkpt>
      <trkpt lat="43.55698" lon="1.44516">
        <ele>292</ele>
        <time>2012-03-04T09:43:30.598Z</time>
      </trkpt>
      <trkpt lat="43.55702" lon="1.4452">
        <ele>292</ele>
        <time>2012-03-04T09:43:35.599Z</time>
      </trkpt>
      <trkpt lat="43.55708" lon="1.44526">
        <ele>293</ele>
        <time>2012-03-04T09:43:40.599Z</time>
      </trkpt>
      <trkpt lat="43.55714" lon="1.44532">
        <ele>293</ele>
        <time>2012-03-04T09:43:45.599Z</time>
      </trkpt>
      <trkpt lat="43.55722" lon="1.44538">
        <ele>294</ele>
        <time>2012-03-04T09:43:50.598Z</time>
      </trkpt>
      <trkpt lat="43.55728" lon="1.44543">
        <ele>295</ele>
        <time>2012-03-04T09:43:55.599Z</time>
      </trkpt>
      <trkpt lat="43.55736" lon="1.4455">
        <ele>297</ele>
        <time>2012-03-04T09:44:00.600Z</time>
      </trkpt>
      <trkpt lat="43.55743" lon="1.44556">
        <ele>298</ele>
        <time>2012-03-04T09:44:05.600Z</time>
      </trkpt>
      <trkpt lat="43.5577" lon="1.44568">
        <ele>302</ele>
        <time>2012-03-04T09:44:20.595Z</time>
      </trkpt>
      <trkpt lat="43.55786" lon="1.44576">
        <ele>303</ele>
        <time>2012-03-04T09:44:30.600Z</time>
      </trkpt>
      <trkpt lat="43.55796" lon="1.44582">
        <ele>304</ele>
        <time>2012-03-04T09:44:35.600Z</time>
      </trkpt>
      <trkpt lat="43.55807" lon="1.44587">
        <ele>304</ele>
        <time>2012-03-04T09:44:40.601Z</time>
      </trkpt>
      <trkpt lat="43.55819" lon="1.44589">
        <ele>305</ele>
        <time>2012-03-04T09:44:45.601Z</time>
      </trkpt>
      <trkpt lat="43.55831" lon="1.44589">
        <ele>305</ele>
        <time>2012-03-04T09:44:50.601Z</time>
      </trkpt>
      <trkpt lat="43.55846" lon="1.44586">
        <ele>305</ele>
        <time>2012-03-04T09:44:55.600Z</time>
      </trkpt>
      <trkpt lat="43.55846" lon="1.44586">
        <ele>305</ele>
        <time>2012-03-04T09:44:55.600Z</time>
      </trkpt>
      <trkpt lat="43.55877" lon="1.44575">
        <ele>306</ele>
        <time>2012-03-04T09:45:05.603Z</time>
      </trkpt>
      <trkpt lat="43.55892" lon="1.44563">
        <ele>306</ele>
        <time>2012-03-04T09:45:10.601Z</time>
      </trkpt>
      <trkpt lat="43.55903" lon="1.44554">
        <ele>306</ele>
        <time>2012-03-04T09:45:15.603Z</time>
      </trkpt>
      <trkpt lat="43.55912" lon="1.44547">
        <ele>306</ele>
        <time>2012-03-04T09:45:20.604Z</time>
      </trkpt>
      <trkpt lat="43.55923" lon="1.44542">
        <ele>306</ele>
        <time>2012-03-04T09:45:25.605Z</time>
      </trkpt>
      <trkpt lat="43.55938" lon="1.44539">
        <ele>305</ele>
        <time>2012-03-04T09:45:30.602Z</time>
      </trkpt>
      <trkpt lat="43.55963" lon="1.44517">
        <ele>304</ele>
        <time>2012-03-04T09:45:35.606Z</time>
      </trkpt>
      <trkpt lat="43.55998" lon="1.44478">
        <ele>302</ele>
        <time>2012-03-04T09:45:40.605Z</time>
      </trkpt>
      <trkpt lat="43.56038" lon="1.44428">
        <ele>296</ele>
        <time>2012-03-04T09:45:45.603Z</time>
      </trkpt>
      <trkpt lat="43.56066" lon="1.4438">
        <ele>292</ele>
        <time>2012-03-04T09:45:50.603Z</time>
      </trkpt>
      <trkpt lat="43.56087" lon="1.4435">
        <ele>290</ele>
        <time>2012-03-04T09:45:55.604Z</time>
      </trkpt>
      <trkpt lat="43.56112" lon="1.4436">
        <ele>285</ele>
        <time>2012-03-04T09:46:00.603Z</time>
      </trkpt>
      <trkpt lat="43.56128" lon="1.44392">
        <ele>283</ele>
        <time>2012-03-04T09:46:05.614Z</time>
      </trkpt>
      <trkpt lat="43.5615" lon="1.44427">
        <ele>282</ele>
        <time>2012-03-04T09:46:10.602Z</time>
      </trkpt>
      <trkpt lat="43.56187" lon="1.44481">
        <ele>279</ele>
        <time>2012-03-04T09:46:20.603Z</time>
      </trkpt>
      <trkpt lat="43.56194" lon="1.44503">
        <ele>279</ele>
        <time>2012-03-04T09:46:25.606Z</time>
      </trkpt>
      <trkpt lat="43.56187" lon="1.44521">
        <ele>279</ele>
        <time>2012-03-04T09:46:30.604Z</time>
      </trkpt>
      <trkpt lat="43.56185" lon="1.44536">
        <ele>279</ele>
        <time>2012-03-04T09:46:35.607Z</time>
      </trkpt>
      <trkpt lat="43.56187" lon="1.44541">
        <ele>279</ele>
        <time>2012-03-04T09:46:40.609Z</time>
      </trkpt>
      <trkpt lat="43.56198" lon="1.44554">
        <ele>278</ele>
        <time>2012-03-04T09:46:45.609Z</time>
      </trkpt>
      <trkpt lat="43.56218" lon="1.4456">
        <ele>276</ele>
        <time>2012-03-04T09:46:50.604Z</time>
      </trkpt>
      <trkpt lat="43.56242" lon="1.44535">
        <ele>275</ele>
        <time>2012-03-04T09:46:55.606Z</time>
      </trkpt>
      <trkpt lat="43.5626" lon="1.44543">
        <ele>273</ele>
        <time>2012-03-04T09:47:01.301Z</time>
      </trkpt>
      <trkpt lat="43.5627" lon="1.4456">
        <ele>274</ele>
        <time>2012-03-04T09:47:05.607Z</time>
      </trkpt>
      <trkpt lat="43.56276" lon="1.44568">
        <ele>274</ele>
        <time>2012-03-04T09:47:10.606Z</time>
      </trkpt>
      <trkpt lat="43.56281" lon="1.44576">
        <ele>275</ele>
        <time>2012-03-04T09:47:15.606Z</time>
      </trkpt>
      <trkpt lat="43.56287" lon="1.44585">
        <ele>276</ele>
        <time>2012-03-04T09:47:20.606Z</time>
      </trkpt>
      <trkpt lat="43.56293" lon="1.44593">
        <ele>276</ele>
        <time>2012-03-04T09:47:25.606Z</time>
      </trkpt>
      <trkpt lat="43.56298" lon="1.44601">
        <ele>276</ele>
        <time>2012-03-04T09:47:30.613Z</time>
      </trkpt>
      <trkpt lat="43.56303" lon="1.4461">
        <ele>275</ele>
        <time>2012-03-04T09:47:35.602Z</time>
      </trkpt>
      <trkpt lat="43.56309" lon="1.44615">
        <ele>276</ele>
        <time>2012-03-04T09:47:40.610Z</time>
      </trkpt>
      <trkpt lat="43.56315" lon="1.44614">
        <ele>277</ele>
        <time>2012-03-04T09:47:45.611Z</time>
      </trkpt>
      <trkpt lat="43.56323" lon="1.44611">
        <ele>278</ele>
        <time>2012-03-04T09:47:50.525Z</time>
      </trkpt>
      <trkpt lat="43.5634" lon="1.44607">
        <ele>279</ele>
        <time>2012-03-04T09:48:00.527Z</time>
      </trkpt>
      <trkpt lat="43.56347" lon="1.44603">
        <ele>280</ele>
        <time>2012-03-04T09:48:05.533Z</time>
      </trkpt>
      <trkpt lat="43.56355" lon="1.44596">
        <ele>281</ele>
        <time>2012-03-04T09:48:10.527Z</time>
      </trkpt>
      <trkpt lat="43.56363" lon="1.44591">
        <ele>282</ele>
        <time>2012-03-04T09:48:15.530Z</time>
      </trkpt>
      <trkpt lat="43.56371" lon="1.44582">
        <ele>282</ele>
        <time>2012-03-04T09:48:20.526Z</time>
      </trkpt>
      <trkpt lat="43.56383" lon="1.44571">
        <ele>282</ele>
        <time>2012-03-04T09:48:25.528Z</time>
      </trkpt>
      <trkpt lat="43.56395" lon="1.44561">
        <ele>282</ele>
        <time>2012-03-04T09:48:30.531Z</time>
      </trkpt>
      <trkpt lat="43.56406" lon="1.44553">
        <ele>282</ele>
        <time>2012-03-04T09:48:35.529Z</time>
      </trkpt>
      <trkpt lat="43.56416" lon="1.44546">
        <ele>283</ele>
        <time>2012-03-04T09:48:40.528Z</time>
      </trkpt>
      <trkpt lat="43.56427" lon="1.44539">
        <ele>283</ele>
        <time>2012-03-04T09:48:45.529Z</time>
      </trkpt>
      <trkpt lat="43.56438" lon="1.4453">
        <ele>283</ele>
        <time>2012-03-04T09:48:50.526Z</time>
      </trkpt>
      <trkpt lat="43.56449" lon="1.44523">
        <ele>284</ele>
        <time>2012-03-04T09:48:55.531Z</time>
      </trkpt>
      <trkpt lat="43.5646" lon="1.44514">
        <ele>284</ele>
        <time>2012-03-04T09:49:01.034Z</time>
      </trkpt>
      <trkpt lat="43.56473" lon="1.44503">
        <ele>283</ele>
        <time>2012-03-04T09:49:05.524Z</time>
      </trkpt>
      <trkpt lat="43.56485" lon="1.44491">
        <ele>282</ele>
        <time>2012-03-04T09:49:10.531Z</time>
      </trkpt>
      <trkpt lat="43.56498" lon="1.44482">
        <ele>283</ele>
        <time>2012-03-04T09:49:15.532Z</time>
      </trkpt>
      <trkpt lat="43.56509" lon="1.44473">
        <ele>282</ele>
        <time>2012-03-04T09:49:20.532Z</time>
      </trkpt>
      <trkpt lat="43.56522" lon="1.44463">
        <ele>282</ele>
        <time>2012-03-04T09:49:25.529Z</time>
      </trkpt>
      <trkpt lat="43.56534" lon="1.44454">
        <ele>283</ele>
        <time>2012-03-04T09:49:30.523Z</time>
      </trkpt>
      <trkpt lat="43.56554" lon="1.44441">
        <ele>280</ele>
        <time>2012-03-04T09:49:40.530Z</time>
      </trkpt>
      <trkpt lat="43.56566" lon="1.4443">
        <ele>279</ele>
        <time>2012-03-04T09:49:45.530Z</time>
      </trkpt>
      <trkpt lat="43.5658" lon="1.44419">
        <ele>279</ele>
        <time>2012-03-04T09:49:50.534Z</time>
      </trkpt>
      <trkpt lat="43.56593" lon="1.4441">
        <ele>279</ele>
        <time>2012-03-04T09:49:55.529Z</time>
      </trkpt>
      <trkpt lat="43.56599" lon="1.44396">
        <ele>279</ele>
        <time>2012-03-04T09:50:00.561Z</time>
      </trkpt>
      <trkpt lat="43.56606" lon="1.44371">
        <ele>280</ele>
        <time>2012-03-04T09:50:05.531Z</time>
      </trkpt>
      <trkpt lat="43.56617" lon="1.44324">
        <ele>279</ele>
        <time>2012-03-04T09:50:10.532Z</time>
      </trkpt>
      <trkpt lat="43.56647" lon="1.4427">
        <ele>276</ele>
        <time>2012-03-04T09:50:15.531Z</time>
      </trkpt>
      <trkpt lat="43.5667" lon="1.44223">
        <ele>273</ele>
        <time>2012-03-04T09:50:20.532Z</time>
      </trkpt>
      <trkpt lat="43.56694" lon="1.44216">
        <ele>272</ele>
        <time>2012-03-04T09:50:25.528Z</time>
      </trkpt>
      <trkpt lat="43.56725" lon="1.44218">
        <ele>271</ele>
        <time>2012-03-04T09:50:30.529Z</time>
      </trkpt>
      <trkpt lat="43.56758" lon="1.44222">
        <ele>272</ele>
        <time>2012-03-04T09:50:35.530Z</time>
      </trkpt>
      <trkpt lat="43.56784" lon="1.44229">
        <ele>272</ele>
        <time>2012-03-04T09:50:40.531Z</time>
      </trkpt>
      <trkpt lat="43.56806" lon="1.44233">
        <ele>272</ele>
        <time>2012-03-04T09:50:45.536Z</time>
      </trkpt>
      <trkpt lat="43.56827" lon="1.44233">
        <ele>272</ele>
        <time>2012-03-04T09:50:50.532Z</time>
      </trkpt>
      <trkpt lat="43.56846" lon="1.44224">
        <ele>271</ele>
        <time>2012-03-04T09:50:55.531Z</time>
      </trkpt>
      <trkpt lat="43.56867" lon="1.44221">
        <ele>269</ele>
        <time>2012-03-04T09:51:01.010Z</time>
      </trkpt>
      <trkpt lat="43.56894" lon="1.44215">
        <ele>269</ele>
        <time>2012-03-04T09:51:05.535Z</time>
      </trkpt>
      <trkpt lat="43.5693" lon="1.44208">
        <ele>266</ele>
        <time>2012-03-04T09:51:10.534Z</time>
      </trkpt>
      <trkpt lat="43.56973" lon="1.44204">
        <ele>262</ele>
        <time>2012-03-04T09:51:15.534Z</time>
      </trkpt>
      <trkpt lat="43.57015" lon="1.44201">
        <ele>259</ele>
        <time>2012-03-04T09:51:20.529Z</time>
      </trkpt>
      <trkpt lat="43.57144" lon="1.44156">
        <ele>249</ele>
        <time>2012-03-04T09:51:35.532Z</time>
      </trkpt>
      <trkpt lat="43.57222" lon="1.44145">
        <ele>242</ele>
        <time>2012-03-04T09:51:45.534Z</time>
      </trkpt>
      <trkpt lat="43.57232" lon="1.44146">
        <ele>240</ele>
        <time>2012-03-04T09:51:50.533Z</time>
      </trkpt>
      <trkpt lat="43.57254" lon="1.44149">
        <ele>239</ele>
        <time>2012-03-04T09:51:55.534Z</time>
      </trkpt>
      <trkpt lat="43.5728" lon="1.44148">
        <ele>238</ele>
        <time>2012-03-04T09:52:00.530Z</time>
      </trkpt>
      <trkpt lat="43.57318" lon="1.44138">
        <ele>236</ele>
        <time>2012-03-04T09:52:05.536Z</time>
      </trkpt>
      <trkpt lat="43.5736" lon="1.44112">
        <ele>230</ele>
        <time>2012-03-04T09:52:10.534Z</time>
      </trkpt>
      <trkpt lat="43.57395" lon="1.44113">
        <ele>227</ele>
        <time>2012-03-04T09:52:15.535Z</time>
      </trkpt>
      <trkpt lat="43.57422" lon="1.44145">
        <ele>223</ele>
        <time>2012-03-04T09:52:20.534Z</time>
      </trkpt>
      <trkpt lat="43.57454" lon="1.4418">
        <ele>217</ele>
        <time>2012-03-04T09:52:25.535Z</time>
      </trkpt>
      <trkpt lat="43.57489" lon="1.44233">
        <ele>208</ele>
        <time>2012-03-04T09:52:30.539Z</time>
      </trkpt>
      <trkpt lat="43.57522" lon="1.44288">
        <ele>204</ele>
        <time>2012-03-04T09:52:35.533Z</time>
      </trkpt>
      <trkpt lat="43.57537" lon="1.44315">
        <ele>201</ele>
        <time>2012-03-04T09:52:40.534Z</time>
      </trkpt>
    </trkseg>
  </trk>
</gpx>